<?xml version="1.0" encoding="UTF-8" standalone="no" ?>
<gpx xmlns="http://www.topografix.com/GPX/1/1" xmlns:xsi="http://www.w3.org/2001/XMLSchema-instance" xsi:schemaLocation="http://www.topografix.com/GPX/1/1 http://www.topografix.com/GPX/1/1/gpx.xsd" version="1.1" creator="VisuGPX - https://www.visugpx.com">
  <metadata>
    <name>L'Audibergue - les crêtes par l'Aven des Ténèbres (GPS)</name>
    <desc><![CDATA[l'Audibergues, vers l'Aven des Ténèbres - sentier, balise 176 à crête, crête176, descente vers passerelle de ski, 173, 172.]]></desc>
  </metadata>
  <trk>
    <name><![CDATA[27 nov. 2018]]></name>
    <cmt><![CDATA[9:31:14 AM]]></cmt>
    <desc><![CDATA[comment ...]]></desc>
    <trkseg>
      <trkpt lat="43.75909" lon="6.78802">
        <ele>1345</ele>
        <time>2018-11-27T08:31:14Z</time>
      </trkpt>
      <trkpt lat="43.75908" lon="6.78801">
        <ele>1345</ele>
        <time>2018-11-27T08:31:18Z</time>
      </trkpt>
      <trkpt lat="43.75908" lon="6.78801">
        <ele>1345</ele>
        <time>2018-11-27T08:31:19Z</time>
      </trkpt>
      <trkpt lat="43.7591" lon="6.78806">
        <ele>1344</ele>
        <time>2018-11-27T08:32:20Z</time>
      </trkpt>
      <trkpt lat="43.75903" lon="6.78808">
        <ele>1344</ele>
        <time>2018-11-27T08:33:05Z</time>
      </trkpt>
      <trkpt lat="43.75894" lon="6.78816">
        <ele>1347</ele>
        <time>2018-11-27T08:33:16Z</time>
      </trkpt>
      <trkpt lat="43.75887" lon="6.78822">
        <ele>1347</ele>
        <time>2018-11-27T08:33:25Z</time>
      </trkpt>
      <trkpt lat="43.75883" lon="6.78828">
        <ele>1350</ele>
        <time>2018-11-27T08:33:33Z</time>
      </trkpt>
      <trkpt lat="43.75875" lon="6.78832">
        <ele>1352</ele>
        <time>2018-11-27T08:33:37Z</time>
      </trkpt>
      <trkpt lat="43.75871" lon="6.78836">
        <ele>1355</ele>
        <time>2018-11-27T08:33:44Z</time>
      </trkpt>
      <trkpt lat="43.75866" lon="6.78833">
        <ele>1354</ele>
        <time>2018-11-27T08:33:54Z</time>
      </trkpt>
      <trkpt lat="43.7586" lon="6.78835">
        <ele>1347</ele>
        <time>2018-11-27T08:34:06Z</time>
      </trkpt>
      <trkpt lat="43.75854" lon="6.78837">
        <ele>1348</ele>
        <time>2018-11-27T08:34:11Z</time>
      </trkpt>
      <trkpt lat="43.75843" lon="6.78848">
        <ele>1352</ele>
        <time>2018-11-27T08:34:33Z</time>
      </trkpt>
      <trkpt lat="43.75835" lon="6.78852">
        <ele>1354</ele>
        <time>2018-11-27T08:34:51Z</time>
      </trkpt>
      <trkpt lat="43.75829" lon="6.78851">
        <ele>1357</ele>
        <time>2018-11-27T08:35:02Z</time>
      </trkpt>
      <trkpt lat="43.75822" lon="6.78849">
        <ele>1360</ele>
        <time>2018-11-27T08:35:12Z</time>
      </trkpt>
      <trkpt lat="43.75813" lon="6.78844">
        <ele>1359</ele>
        <time>2018-11-27T08:35:23Z</time>
      </trkpt>
      <trkpt lat="43.75806" lon="6.78851">
        <ele>1360</ele>
        <time>2018-11-27T08:35:31Z</time>
      </trkpt>
      <trkpt lat="43.75802" lon="6.78858">
        <ele>1360</ele>
        <time>2018-11-27T08:35:37Z</time>
      </trkpt>
      <trkpt lat="43.75806" lon="6.78866">
        <ele>1360</ele>
        <time>2018-11-27T08:35:42Z</time>
      </trkpt>
      <trkpt lat="43.75803" lon="6.78872">
        <ele>1361</ele>
        <time>2018-11-27T08:35:53Z</time>
      </trkpt>
      <trkpt lat="43.75799" lon="6.78876">
        <ele>1361</ele>
        <time>2018-11-27T08:35:59Z</time>
      </trkpt>
      <trkpt lat="43.75795" lon="6.78887">
        <ele>1363</ele>
        <time>2018-11-27T08:36:09Z</time>
      </trkpt>
      <trkpt lat="43.75792" lon="6.78893">
        <ele>1363</ele>
        <time>2018-11-27T08:36:26Z</time>
      </trkpt>
      <trkpt lat="43.75792" lon="6.78899">
        <ele>1363</ele>
        <time>2018-11-27T08:36:33Z</time>
      </trkpt>
      <trkpt lat="43.75787" lon="6.78899">
        <ele>1359</ele>
        <time>2018-11-27T08:36:55Z</time>
      </trkpt>
      <trkpt lat="43.75785" lon="6.78904">
        <ele>1360</ele>
        <time>2018-11-27T08:37:00Z</time>
      </trkpt>
      <trkpt lat="43.75781" lon="6.78908">
        <ele>1358</ele>
        <time>2018-11-27T08:37:13Z</time>
      </trkpt>
      <trkpt lat="43.75786" lon="6.78914">
        <ele>1361</ele>
        <time>2018-11-27T08:37:47Z</time>
      </trkpt>
      <trkpt lat="43.75788" lon="6.78907">
        <ele>1362</ele>
        <time>2018-11-27T08:37:55Z</time>
      </trkpt>
      <trkpt lat="43.75789" lon="6.78901">
        <ele>1362</ele>
        <time>2018-11-27T08:38:04Z</time>
      </trkpt>
      <trkpt lat="43.7579" lon="6.78899">
        <ele>1363</ele>
        <time>2018-11-27T08:40:59Z</time>
      </trkpt>
      <trkpt lat="43.75784" lon="6.78899">
        <ele>1361</ele>
        <time>2018-11-27T08:43:00Z</time>
      </trkpt>
      <trkpt lat="43.75781" lon="6.78903">
        <ele>1360</ele>
        <time>2018-11-27T08:43:39Z</time>
      </trkpt>
      <trkpt lat="43.75779" lon="6.78908">
        <ele>1361</ele>
        <time>2018-11-27T08:43:48Z</time>
      </trkpt>
      <trkpt lat="43.75776" lon="6.78913">
        <ele>1362</ele>
        <time>2018-11-27T08:43:56Z</time>
      </trkpt>
      <trkpt lat="43.75773" lon="6.78917">
        <ele>1363</ele>
        <time>2018-11-27T08:44:02Z</time>
      </trkpt>
      <trkpt lat="43.75769" lon="6.78932">
        <ele>1365</ele>
        <time>2018-11-27T08:44:12Z</time>
      </trkpt>
      <trkpt lat="43.75765" lon="6.78937">
        <ele>1368</ele>
        <time>2018-11-27T08:44:24Z</time>
      </trkpt>
      <trkpt lat="43.75762" lon="6.78945">
        <ele>1369</ele>
        <time>2018-11-27T08:44:32Z</time>
      </trkpt>
      <trkpt lat="43.75762" lon="6.78955">
        <ele>1372</ele>
        <time>2018-11-27T08:44:36Z</time>
      </trkpt>
      <trkpt lat="43.75758" lon="6.78969">
        <ele>1371</ele>
        <time>2018-11-27T08:44:55Z</time>
      </trkpt>
      <trkpt lat="43.75756" lon="6.78978">
        <ele>1372</ele>
        <time>2018-11-27T08:45:02Z</time>
      </trkpt>
      <trkpt lat="43.75751" lon="6.78977">
        <ele>1371</ele>
        <time>2018-11-27T08:45:14Z</time>
      </trkpt>
      <trkpt lat="43.75745" lon="6.78971">
        <ele>1375</ele>
        <time>2018-11-27T08:45:25Z</time>
      </trkpt>
      <trkpt lat="43.7574" lon="6.78966">
        <ele>1375</ele>
        <time>2018-11-27T08:45:34Z</time>
      </trkpt>
      <trkpt lat="43.75735" lon="6.78966">
        <ele>1373</ele>
        <time>2018-11-27T08:45:49Z</time>
      </trkpt>
      <trkpt lat="43.7573" lon="6.78967">
        <ele>1374</ele>
        <time>2018-11-27T08:45:56Z</time>
      </trkpt>
      <trkpt lat="43.75725" lon="6.78971">
        <ele>1375</ele>
        <time>2018-11-27T08:46:01Z</time>
      </trkpt>
      <trkpt lat="43.75719" lon="6.78982">
        <ele>1375</ele>
        <time>2018-11-27T08:46:13Z</time>
      </trkpt>
      <trkpt lat="43.75716" lon="6.78989">
        <ele>1379</ele>
        <time>2018-11-27T08:46:24Z</time>
      </trkpt>
      <trkpt lat="43.75716" lon="6.78999">
        <ele>1382</ele>
        <time>2018-11-27T08:46:38Z</time>
      </trkpt>
      <trkpt lat="43.7571" lon="6.79004">
        <ele>1384</ele>
        <time>2018-11-27T08:46:45Z</time>
      </trkpt>
      <trkpt lat="43.75707" lon="6.79014">
        <ele>1388</ele>
        <time>2018-11-27T08:46:54Z</time>
      </trkpt>
      <trkpt lat="43.757" lon="6.7902">
        <ele>1386</ele>
        <time>2018-11-27T08:47:07Z</time>
      </trkpt>
      <trkpt lat="43.75696" lon="6.79026">
        <ele>1381</ele>
        <time>2018-11-27T08:47:15Z</time>
      </trkpt>
      <trkpt lat="43.75693" lon="6.79036">
        <ele>1382</ele>
        <time>2018-11-27T08:47:25Z</time>
      </trkpt>
      <trkpt lat="43.75687" lon="6.79043">
        <ele>1384</ele>
        <time>2018-11-27T08:47:30Z</time>
      </trkpt>
      <trkpt lat="43.7568" lon="6.79047">
        <ele>1384</ele>
        <time>2018-11-27T08:47:49Z</time>
      </trkpt>
      <trkpt lat="43.75677" lon="6.79055">
        <ele>1384</ele>
        <time>2018-11-27T08:47:56Z</time>
      </trkpt>
      <trkpt lat="43.7567" lon="6.79067">
        <ele>1387</ele>
        <time>2018-11-27T08:48:10Z</time>
      </trkpt>
      <trkpt lat="43.75664" lon="6.79077">
        <ele>1394</ele>
        <time>2018-11-27T08:48:22Z</time>
      </trkpt>
      <trkpt lat="43.75646" lon="6.79096">
        <ele>1398</ele>
        <time>2018-11-27T08:48:55Z</time>
      </trkpt>
      <trkpt lat="43.75643" lon="6.79101">
        <ele>1398</ele>
        <time>2018-11-27T08:48:59Z</time>
      </trkpt>
      <trkpt lat="43.75639" lon="6.79104">
        <ele>1396</ele>
        <time>2018-11-27T08:49:07Z</time>
      </trkpt>
      <trkpt lat="43.7563" lon="6.79119">
        <ele>1400</ele>
        <time>2018-11-27T08:49:29Z</time>
      </trkpt>
      <trkpt lat="43.75628" lon="6.79125">
        <ele>1401</ele>
        <time>2018-11-27T08:49:33Z</time>
      </trkpt>
      <trkpt lat="43.75623" lon="6.79129">
        <ele>1404</ele>
        <time>2018-11-27T08:49:39Z</time>
      </trkpt>
      <trkpt lat="43.75617" lon="6.79133">
        <ele>1405</ele>
        <time>2018-11-27T08:49:46Z</time>
      </trkpt>
      <trkpt lat="43.75608" lon="6.79144">
        <ele>1405</ele>
        <time>2018-11-27T08:50:00Z</time>
      </trkpt>
      <trkpt lat="43.75606" lon="6.79155">
        <ele>1403</ele>
        <time>2018-11-27T08:50:06Z</time>
      </trkpt>
      <trkpt lat="43.75601" lon="6.79159">
        <ele>1404</ele>
        <time>2018-11-27T08:50:12Z</time>
      </trkpt>
      <trkpt lat="43.75597" lon="6.79164">
        <ele>1408</ele>
        <time>2018-11-27T08:50:19Z</time>
      </trkpt>
      <trkpt lat="43.75592" lon="6.79168">
        <ele>1406</ele>
        <time>2018-11-27T08:50:24Z</time>
      </trkpt>
      <trkpt lat="43.75582" lon="6.79181">
        <ele>1404</ele>
        <time>2018-11-27T08:50:45Z</time>
      </trkpt>
      <trkpt lat="43.75579" lon="6.79187">
        <ele>1405</ele>
        <time>2018-11-27T08:50:51Z</time>
      </trkpt>
      <trkpt lat="43.75576" lon="6.79195">
        <ele>1410</ele>
        <time>2018-11-27T08:50:58Z</time>
      </trkpt>
      <trkpt lat="43.75571" lon="6.79197">
        <ele>1411</ele>
        <time>2018-11-27T08:51:09Z</time>
      </trkpt>
      <trkpt lat="43.75564" lon="6.79208">
        <ele>1410</ele>
        <time>2018-11-27T08:51:20Z</time>
      </trkpt>
      <trkpt lat="43.75562" lon="6.79214">
        <ele>1411</ele>
        <time>2018-11-27T08:51:24Z</time>
      </trkpt>
      <trkpt lat="43.7556" lon="6.79219">
        <ele>1411</ele>
        <time>2018-11-27T08:51:38Z</time>
      </trkpt>
      <trkpt lat="43.75558" lon="6.79225">
        <ele>1412</ele>
        <time>2018-11-27T08:51:42Z</time>
      </trkpt>
      <trkpt lat="43.75558" lon="6.79231">
        <ele>1413</ele>
        <time>2018-11-27T08:51:46Z</time>
      </trkpt>
      <trkpt lat="43.75558" lon="6.79237">
        <ele>1413</ele>
        <time>2018-11-27T08:51:49Z</time>
      </trkpt>
      <trkpt lat="43.75553" lon="6.79243">
        <ele>1411</ele>
        <time>2018-11-27T08:52:08Z</time>
      </trkpt>
      <trkpt lat="43.7555" lon="6.7926">
        <ele>1403</ele>
        <time>2018-11-27T08:52:30Z</time>
      </trkpt>
      <trkpt lat="43.75549" lon="6.79268">
        <ele>1405</ele>
        <time>2018-11-27T08:52:37Z</time>
      </trkpt>
      <trkpt lat="43.75542" lon="6.79286">
        <ele>1414</ele>
        <time>2018-11-27T08:52:50Z</time>
      </trkpt>
      <trkpt lat="43.75541" lon="6.79294">
        <ele>1416</ele>
        <time>2018-11-27T08:52:56Z</time>
      </trkpt>
      <trkpt lat="43.75536" lon="6.7931">
        <ele>1417</ele>
        <time>2018-11-27T08:53:16Z</time>
      </trkpt>
      <trkpt lat="43.7554" lon="6.79325">
        <ele>1415</ele>
        <time>2018-11-27T08:53:40Z</time>
      </trkpt>
      <trkpt lat="43.75535" lon="6.7933">
        <ele>1415</ele>
        <time>2018-11-27T08:53:47Z</time>
      </trkpt>
      <trkpt lat="43.75538" lon="6.79337">
        <ele>1414</ele>
        <time>2018-11-27T08:53:53Z</time>
      </trkpt>
      <trkpt lat="43.75535" lon="6.79342">
        <ele>1409</ele>
        <time>2018-11-27T08:54:05Z</time>
      </trkpt>
      <trkpt lat="43.75535" lon="6.7935">
        <ele>1408</ele>
        <time>2018-11-27T08:54:14Z</time>
      </trkpt>
      <trkpt lat="43.75536" lon="6.79358">
        <ele>1412</ele>
        <time>2018-11-27T08:54:20Z</time>
      </trkpt>
      <trkpt lat="43.75532" lon="6.79362">
        <ele>1412</ele>
        <time>2018-11-27T08:54:26Z</time>
      </trkpt>
      <trkpt lat="43.75528" lon="6.79364">
        <ele>1413</ele>
        <time>2018-11-27T08:54:34Z</time>
      </trkpt>
      <trkpt lat="43.75524" lon="6.79369">
        <ele>1415</ele>
        <time>2018-11-27T08:54:46Z</time>
      </trkpt>
      <trkpt lat="43.75516" lon="6.79372">
        <ele>1414</ele>
        <time>2018-11-27T08:54:54Z</time>
      </trkpt>
      <trkpt lat="43.75511" lon="6.79375">
        <ele>1417</ele>
        <time>2018-11-27T08:55:00Z</time>
      </trkpt>
      <trkpt lat="43.75506" lon="6.79379">
        <ele>1427</ele>
        <time>2018-11-27T08:55:07Z</time>
      </trkpt>
      <trkpt lat="43.75504" lon="6.79384">
        <ele>1429</ele>
        <time>2018-11-27T08:55:12Z</time>
      </trkpt>
      <trkpt lat="43.75503" lon="6.79391">
        <ele>1431</ele>
        <time>2018-11-27T08:55:17Z</time>
      </trkpt>
      <trkpt lat="43.75499" lon="6.79397">
        <ele>1431</ele>
        <time>2018-11-27T08:55:21Z</time>
      </trkpt>
      <trkpt lat="43.75495" lon="6.79394">
        <ele>1431</ele>
        <time>2018-11-27T08:55:27Z</time>
      </trkpt>
      <trkpt lat="43.75493" lon="6.79389">
        <ele>1435</ele>
        <time>2018-11-27T08:55:32Z</time>
      </trkpt>
      <trkpt lat="43.7549" lon="6.79384">
        <ele>1434</ele>
        <time>2018-11-27T08:55:55Z</time>
      </trkpt>
      <trkpt lat="43.7549" lon="6.79385">
        <ele>1428</ele>
        <time>2018-11-27T08:59:45Z</time>
      </trkpt>
      <trkpt lat="43.75489" lon="6.7939">
        <ele>1428</ele>
        <time>2018-11-27T08:59:57Z</time>
      </trkpt>
      <trkpt lat="43.75485" lon="6.79396">
        <ele>1428</ele>
        <time>2018-11-27T09:00:04Z</time>
      </trkpt>
      <trkpt lat="43.75481" lon="6.79398">
        <ele>1428</ele>
        <time>2018-11-27T09:00:09Z</time>
      </trkpt>
      <trkpt lat="43.75482" lon="6.79406">
        <ele>1429</ele>
        <time>2018-11-27T09:00:23Z</time>
      </trkpt>
      <trkpt lat="43.75479" lon="6.79411">
        <ele>1432</ele>
        <time>2018-11-27T09:00:26Z</time>
      </trkpt>
      <trkpt lat="43.75475" lon="6.79422">
        <ele>1438</ele>
        <time>2018-11-27T09:00:38Z</time>
      </trkpt>
      <trkpt lat="43.75472" lon="6.79428">
        <ele>1438</ele>
        <time>2018-11-27T09:00:46Z</time>
      </trkpt>
      <trkpt lat="43.75472" lon="6.79434">
        <ele>1431</ele>
        <time>2018-11-27T09:01:02Z</time>
      </trkpt>
      <trkpt lat="43.75469" lon="6.79438">
        <ele>1430</ele>
        <time>2018-11-27T09:01:08Z</time>
      </trkpt>
      <trkpt lat="43.75469" lon="6.79444">
        <ele>1432</ele>
        <time>2018-11-27T09:01:15Z</time>
      </trkpt>
      <trkpt lat="43.75462" lon="6.79454">
        <ele>1434</ele>
        <time>2018-11-27T09:01:27Z</time>
      </trkpt>
      <trkpt lat="43.75455" lon="6.7946">
        <ele>1436</ele>
        <time>2018-11-27T09:01:43Z</time>
      </trkpt>
      <trkpt lat="43.75452" lon="6.79463">
        <ele>1435</ele>
        <time>2018-11-27T09:01:48Z</time>
      </trkpt>
      <trkpt lat="43.75449" lon="6.79457">
        <ele>1437</ele>
        <time>2018-11-27T09:02:05Z</time>
      </trkpt>
      <trkpt lat="43.75443" lon="6.79457">
        <ele>1440</ele>
        <time>2018-11-27T09:02:13Z</time>
      </trkpt>
      <trkpt lat="43.75437" lon="6.79458">
        <ele>1435</ele>
        <time>2018-11-27T09:02:23Z</time>
      </trkpt>
      <trkpt lat="43.75429" lon="6.79459">
        <ele>1434</ele>
        <time>2018-11-27T09:02:34Z</time>
      </trkpt>
      <trkpt lat="43.75421" lon="6.7946">
        <ele>1443</ele>
        <time>2018-11-27T09:02:40Z</time>
      </trkpt>
      <trkpt lat="43.75414" lon="6.79462">
        <ele>1444</ele>
        <time>2018-11-27T09:02:47Z</time>
      </trkpt>
      <trkpt lat="43.75409" lon="6.79464">
        <ele>1447</ele>
        <time>2018-11-27T09:02:53Z</time>
      </trkpt>
      <trkpt lat="43.75399" lon="6.79467">
        <ele>1445</ele>
        <time>2018-11-27T09:03:08Z</time>
      </trkpt>
      <trkpt lat="43.75396" lon="6.79477">
        <ele>1443</ele>
        <time>2018-11-27T09:03:12Z</time>
      </trkpt>
      <trkpt lat="43.75392" lon="6.79486">
        <ele>1445</ele>
        <time>2018-11-27T09:03:17Z</time>
      </trkpt>
      <trkpt lat="43.75385" lon="6.79485">
        <ele>1446</ele>
        <time>2018-11-27T09:03:23Z</time>
      </trkpt>
      <trkpt lat="43.75382" lon="6.79498">
        <ele>1447</ele>
        <time>2018-11-27T09:03:34Z</time>
      </trkpt>
      <trkpt lat="43.75377" lon="6.79503">
        <ele>1447</ele>
        <time>2018-11-27T09:03:45Z</time>
      </trkpt>
      <trkpt lat="43.75369" lon="6.795">
        <ele>1445</ele>
        <time>2018-11-27T09:03:59Z</time>
      </trkpt>
      <trkpt lat="43.75363" lon="6.79494">
        <ele>1426</ele>
        <time>2018-11-27T09:04:06Z</time>
      </trkpt>
      <trkpt lat="43.75358" lon="6.79492">
        <ele>1440</ele>
        <time>2018-11-27T09:04:15Z</time>
      </trkpt>
      <trkpt lat="43.75355" lon="6.79485">
        <ele>1447</ele>
        <time>2018-11-27T09:04:21Z</time>
      </trkpt>
      <trkpt lat="43.75347" lon="6.79482">
        <ele>1447</ele>
        <time>2018-11-27T09:04:30Z</time>
      </trkpt>
      <trkpt lat="43.75341" lon="6.7948">
        <ele>1444</ele>
        <time>2018-11-27T09:04:45Z</time>
      </trkpt>
      <trkpt lat="43.75338" lon="6.79488">
        <ele>1444</ele>
        <time>2018-11-27T09:04:56Z</time>
      </trkpt>
      <trkpt lat="43.75335" lon="6.79496">
        <ele>1432</ele>
        <time>2018-11-27T09:05:04Z</time>
      </trkpt>
      <trkpt lat="43.75329" lon="6.795">
        <ele>1438</ele>
        <time>2018-11-27T09:05:12Z</time>
      </trkpt>
      <trkpt lat="43.75319" lon="6.79502">
        <ele>1441</ele>
        <time>2018-11-27T09:05:26Z</time>
      </trkpt>
      <trkpt lat="43.75316" lon="6.7951">
        <ele>1445</ele>
        <time>2018-11-27T09:05:34Z</time>
      </trkpt>
      <trkpt lat="43.75315" lon="6.79517">
        <ele>1446</ele>
        <time>2018-11-27T09:05:41Z</time>
      </trkpt>
      <trkpt lat="43.75321" lon="6.79532">
        <ele>1447</ele>
        <time>2018-11-27T09:06:14Z</time>
      </trkpt>
      <trkpt lat="43.75329" lon="6.79539">
        <ele>1427</ele>
        <time>2018-11-27T09:06:22Z</time>
      </trkpt>
      <trkpt lat="43.75334" lon="6.79543">
        <ele>1443</ele>
        <time>2018-11-27T09:06:35Z</time>
      </trkpt>
      <trkpt lat="43.75336" lon="6.79552">
        <ele>1439</ele>
        <time>2018-11-27T09:06:54Z</time>
      </trkpt>
      <trkpt lat="43.75339" lon="6.79553">
        <ele>1443</ele>
        <time>2018-11-27T09:08:36Z</time>
      </trkpt>
      <trkpt lat="43.75342" lon="6.79558">
        <ele>1444</ele>
        <time>2018-11-27T09:08:47Z</time>
      </trkpt>
      <trkpt lat="43.75334" lon="6.79558">
        <ele>1444</ele>
        <time>2018-11-27T09:09:07Z</time>
      </trkpt>
      <trkpt lat="43.75328" lon="6.79559">
        <ele>1447</ele>
        <time>2018-11-27T09:09:17Z</time>
      </trkpt>
      <trkpt lat="43.75324" lon="6.79561">
        <ele>1447</ele>
        <time>2018-11-27T09:09:21Z</time>
      </trkpt>
      <trkpt lat="43.7532" lon="6.79568">
        <ele>1449</ele>
        <time>2018-11-27T09:09:27Z</time>
      </trkpt>
      <trkpt lat="43.75312" lon="6.79572">
        <ele>1449</ele>
        <time>2018-11-27T09:09:52Z</time>
      </trkpt>
      <trkpt lat="43.75308" lon="6.79577">
        <ele>1443</ele>
        <time>2018-11-27T09:10:07Z</time>
      </trkpt>
      <trkpt lat="43.75304" lon="6.79584">
        <ele>1448</ele>
        <time>2018-11-27T09:10:11Z</time>
      </trkpt>
      <trkpt lat="43.75299" lon="6.7959">
        <ele>1453</ele>
        <time>2018-11-27T09:10:25Z</time>
      </trkpt>
      <trkpt lat="43.75292" lon="6.79591">
        <ele>1454</ele>
        <time>2018-11-27T09:10:41Z</time>
      </trkpt>
      <trkpt lat="43.75291" lon="6.79599">
        <ele>1458</ele>
        <time>2018-11-27T09:10:53Z</time>
      </trkpt>
      <trkpt lat="43.75287" lon="6.79605">
        <ele>1464</ele>
        <time>2018-11-27T09:11:04Z</time>
      </trkpt>
      <trkpt lat="43.75285" lon="6.7961">
        <ele>1465</ele>
        <time>2018-11-27T09:11:14Z</time>
      </trkpt>
      <trkpt lat="43.75283" lon="6.79619">
        <ele>1464</ele>
        <time>2018-11-27T09:11:23Z</time>
      </trkpt>
      <trkpt lat="43.75281" lon="6.79627">
        <ele>1463</ele>
        <time>2018-11-27T09:11:30Z</time>
      </trkpt>
      <trkpt lat="43.75278" lon="6.79633">
        <ele>1462</ele>
        <time>2018-11-27T09:11:35Z</time>
      </trkpt>
      <trkpt lat="43.75277" lon="6.79639">
        <ele>1463</ele>
        <time>2018-11-27T09:11:40Z</time>
      </trkpt>
      <trkpt lat="43.75276" lon="6.79645">
        <ele>1466</ele>
        <time>2018-11-27T09:11:43Z</time>
      </trkpt>
      <trkpt lat="43.75276" lon="6.79651">
        <ele>1469</ele>
        <time>2018-11-27T09:11:48Z</time>
      </trkpt>
      <trkpt lat="43.75274" lon="6.79657">
        <ele>1471</ele>
        <time>2018-11-27T09:11:58Z</time>
      </trkpt>
      <trkpt lat="43.7527" lon="6.79658">
        <ele>1472</ele>
        <time>2018-11-27T09:12:05Z</time>
      </trkpt>
      <trkpt lat="43.75268" lon="6.79664">
        <ele>1472</ele>
        <time>2018-11-27T09:12:08Z</time>
      </trkpt>
      <trkpt lat="43.75266" lon="6.79669">
        <ele>1472</ele>
        <time>2018-11-27T09:12:13Z</time>
      </trkpt>
      <trkpt lat="43.7526" lon="6.79669">
        <ele>1472</ele>
        <time>2018-11-27T09:12:26Z</time>
      </trkpt>
      <trkpt lat="43.75257" lon="6.79675">
        <ele>1475</ele>
        <time>2018-11-27T09:12:31Z</time>
      </trkpt>
      <trkpt lat="43.75254" lon="6.79682">
        <ele>1475</ele>
        <time>2018-11-27T09:12:40Z</time>
      </trkpt>
      <trkpt lat="43.75248" lon="6.79696">
        <ele>1477</ele>
        <time>2018-11-27T09:12:52Z</time>
      </trkpt>
      <trkpt lat="43.75242" lon="6.79701">
        <ele>1476</ele>
        <time>2018-11-27T09:13:02Z</time>
      </trkpt>
      <trkpt lat="43.75239" lon="6.79708">
        <ele>1476</ele>
        <time>2018-11-27T09:13:08Z</time>
      </trkpt>
      <trkpt lat="43.75235" lon="6.79713">
        <ele>1477</ele>
        <time>2018-11-27T09:13:16Z</time>
      </trkpt>
      <trkpt lat="43.75236" lon="6.79719">
        <ele>1476</ele>
        <time>2018-11-27T09:13:32Z</time>
      </trkpt>
      <trkpt lat="43.75232" lon="6.79723">
        <ele>1476</ele>
        <time>2018-11-27T09:13:36Z</time>
      </trkpt>
      <trkpt lat="43.75229" lon="6.79727">
        <ele>1467</ele>
        <time>2018-11-27T09:13:42Z</time>
      </trkpt>
      <trkpt lat="43.75225" lon="6.7973">
        <ele>1470</ele>
        <time>2018-11-27T09:13:47Z</time>
      </trkpt>
      <trkpt lat="43.75222" lon="6.79737">
        <ele>1474</ele>
        <time>2018-11-27T09:13:52Z</time>
      </trkpt>
      <trkpt lat="43.75218" lon="6.7974">
        <ele>1475</ele>
        <time>2018-11-27T09:14:00Z</time>
      </trkpt>
      <trkpt lat="43.75217" lon="6.79746">
        <ele>1466</ele>
        <time>2018-11-27T09:14:10Z</time>
      </trkpt>
      <trkpt lat="43.7521" lon="6.79755">
        <ele>1476</ele>
        <time>2018-11-27T09:14:27Z</time>
      </trkpt>
      <trkpt lat="43.75207" lon="6.79759">
        <ele>1476</ele>
        <time>2018-11-27T09:14:36Z</time>
      </trkpt>
      <trkpt lat="43.75203" lon="6.79763">
        <ele>1477</ele>
        <time>2018-11-27T09:14:40Z</time>
      </trkpt>
      <trkpt lat="43.75196" lon="6.79771">
        <ele>1478</ele>
        <time>2018-11-27T09:14:50Z</time>
      </trkpt>
      <trkpt lat="43.75193" lon="6.79775">
        <ele>1479</ele>
        <time>2018-11-27T09:14:56Z</time>
      </trkpt>
      <trkpt lat="43.75192" lon="6.79784">
        <ele>1479</ele>
        <time>2018-11-27T09:15:11Z</time>
      </trkpt>
      <trkpt lat="43.75184" lon="6.79801">
        <ele>1479</ele>
        <time>2018-11-27T09:15:34Z</time>
      </trkpt>
      <trkpt lat="43.75182" lon="6.79809">
        <ele>1484</ele>
        <time>2018-11-27T09:15:38Z</time>
      </trkpt>
      <trkpt lat="43.75181" lon="6.79815">
        <ele>1485</ele>
        <time>2018-11-27T09:15:41Z</time>
      </trkpt>
      <trkpt lat="43.75179" lon="6.7982">
        <ele>1484</ele>
        <time>2018-11-27T09:15:45Z</time>
      </trkpt>
      <trkpt lat="43.75179" lon="6.79826">
        <ele>1484</ele>
        <time>2018-11-27T09:15:49Z</time>
      </trkpt>
      <trkpt lat="43.75177" lon="6.79833">
        <ele>1477</ele>
        <time>2018-11-27T09:16:57Z</time>
      </trkpt>
      <trkpt lat="43.75174" lon="6.79839">
        <ele>1476</ele>
        <time>2018-11-27T09:17:05Z</time>
      </trkpt>
      <trkpt lat="43.75171" lon="6.79847">
        <ele>1480</ele>
        <time>2018-11-27T09:17:14Z</time>
      </trkpt>
      <trkpt lat="43.75166" lon="6.7985">
        <ele>1480</ele>
        <time>2018-11-27T09:17:21Z</time>
      </trkpt>
      <trkpt lat="43.75163" lon="6.79857">
        <ele>1480</ele>
        <time>2018-11-27T09:17:28Z</time>
      </trkpt>
      <trkpt lat="43.75159" lon="6.79864">
        <ele>1466</ele>
        <time>2018-11-27T09:17:32Z</time>
      </trkpt>
      <trkpt lat="43.75157" lon="6.79873">
        <ele>1474</ele>
        <time>2018-11-27T09:17:37Z</time>
      </trkpt>
      <trkpt lat="43.75153" lon="6.79877">
        <ele>1484</ele>
        <time>2018-11-27T09:17:57Z</time>
      </trkpt>
      <trkpt lat="43.75141" lon="6.79883">
        <ele>1484</ele>
        <time>2018-11-27T09:18:13Z</time>
      </trkpt>
      <trkpt lat="43.75135" lon="6.79889">
        <ele>1485</ele>
        <time>2018-11-27T09:18:19Z</time>
      </trkpt>
      <trkpt lat="43.75124" lon="6.79886">
        <ele>1489</ele>
        <time>2018-11-27T09:18:35Z</time>
      </trkpt>
      <trkpt lat="43.75122" lon="6.79881">
        <ele>1489</ele>
        <time>2018-11-27T09:18:37Z</time>
      </trkpt>
      <trkpt lat="43.75116" lon="6.79881">
        <ele>1488</ele>
        <time>2018-11-27T09:18:43Z</time>
      </trkpt>
      <trkpt lat="43.75112" lon="6.79879">
        <ele>1488</ele>
        <time>2018-11-27T09:18:48Z</time>
      </trkpt>
      <trkpt lat="43.7511" lon="6.79875">
        <ele>1489</ele>
        <time>2018-11-27T09:18:56Z</time>
      </trkpt>
      <trkpt lat="43.75102" lon="6.79868">
        <ele>1490</ele>
        <time>2018-11-27T09:19:08Z</time>
      </trkpt>
      <trkpt lat="43.75097" lon="6.79865">
        <ele>1492</ele>
        <time>2018-11-27T09:19:14Z</time>
      </trkpt>
      <trkpt lat="43.75093" lon="6.79865">
        <ele>1490</ele>
        <time>2018-11-27T09:19:21Z</time>
      </trkpt>
      <trkpt lat="43.75087" lon="6.79867">
        <ele>1491</ele>
        <time>2018-11-27T09:19:27Z</time>
      </trkpt>
      <trkpt lat="43.7508" lon="6.79871">
        <ele>1496</ele>
        <time>2018-11-27T09:19:34Z</time>
      </trkpt>
      <trkpt lat="43.75073" lon="6.79875">
        <ele>1490</ele>
        <time>2018-11-27T09:19:45Z</time>
      </trkpt>
      <trkpt lat="43.75068" lon="6.79872">
        <ele>1495</ele>
        <time>2018-11-27T09:19:53Z</time>
      </trkpt>
      <trkpt lat="43.75062" lon="6.79874">
        <ele>1496</ele>
        <time>2018-11-27T09:19:59Z</time>
      </trkpt>
      <trkpt lat="43.75057" lon="6.79869">
        <ele>1498</ele>
        <time>2018-11-27T09:20:17Z</time>
      </trkpt>
      <trkpt lat="43.75054" lon="6.79864">
        <ele>1498</ele>
        <time>2018-11-27T09:20:23Z</time>
      </trkpt>
      <trkpt lat="43.75051" lon="6.79857">
        <ele>1502</ele>
        <time>2018-11-27T09:20:30Z</time>
      </trkpt>
      <trkpt lat="43.75048" lon="6.79853">
        <ele>1503</ele>
        <time>2018-11-27T09:20:34Z</time>
      </trkpt>
      <trkpt lat="43.75046" lon="6.79847">
        <ele>1502</ele>
        <time>2018-11-27T09:20:41Z</time>
      </trkpt>
      <trkpt lat="43.75047" lon="6.79841">
        <ele>1502</ele>
        <time>2018-11-27T09:20:48Z</time>
      </trkpt>
      <trkpt lat="43.75044" lon="6.79835">
        <ele>1500</ele>
        <time>2018-11-27T09:20:52Z</time>
      </trkpt>
      <trkpt lat="43.75039" lon="6.79833">
        <ele>1500</ele>
        <time>2018-11-27T09:20:56Z</time>
      </trkpt>
      <trkpt lat="43.75035" lon="6.79831">
        <ele>1503</ele>
        <time>2018-11-27T09:21:00Z</time>
      </trkpt>
      <trkpt lat="43.75026" lon="6.79825">
        <ele>1505</ele>
        <time>2018-11-27T09:21:20Z</time>
      </trkpt>
      <trkpt lat="43.75024" lon="6.79819">
        <ele>1502</ele>
        <time>2018-11-27T09:21:26Z</time>
      </trkpt>
      <trkpt lat="43.75019" lon="6.79815">
        <ele>1500</ele>
        <time>2018-11-27T09:21:34Z</time>
      </trkpt>
      <trkpt lat="43.75014" lon="6.79816">
        <ele>1498</ele>
        <time>2018-11-27T09:21:38Z</time>
      </trkpt>
      <trkpt lat="43.7501" lon="6.79807">
        <ele>1499</ele>
        <time>2018-11-27T09:21:51Z</time>
      </trkpt>
      <trkpt lat="43.75002" lon="6.79794">
        <ele>1505</ele>
        <time>2018-11-27T09:22:05Z</time>
      </trkpt>
      <trkpt lat="43.74996" lon="6.79793">
        <ele>1482</ele>
        <time>2018-11-27T09:22:11Z</time>
      </trkpt>
      <trkpt lat="43.74992" lon="6.7979">
        <ele>1492</ele>
        <time>2018-11-27T09:22:16Z</time>
      </trkpt>
      <trkpt lat="43.74987" lon="6.7979">
        <ele>1502</ele>
        <time>2018-11-27T09:22:21Z</time>
      </trkpt>
      <trkpt lat="43.74983" lon="6.79788">
        <ele>1504</ele>
        <time>2018-11-27T09:22:25Z</time>
      </trkpt>
      <trkpt lat="43.74979" lon="6.79783">
        <ele>1509</ele>
        <time>2018-11-27T09:22:32Z</time>
      </trkpt>
      <trkpt lat="43.74976" lon="6.79786">
        <ele>1506</ele>
        <time>2018-11-27T09:22:49Z</time>
      </trkpt>
      <trkpt lat="43.74975" lon="6.7978">
        <ele>1513</ele>
        <time>2018-11-27T09:23:30Z</time>
      </trkpt>
      <trkpt lat="43.74971" lon="6.79779">
        <ele>1511</ele>
        <time>2018-11-27T09:24:17Z</time>
      </trkpt>
      <trkpt lat="43.74967" lon="6.79778">
        <ele>1512</ele>
        <time>2018-11-27T09:24:22Z</time>
      </trkpt>
      <trkpt lat="43.74959" lon="6.79772">
        <ele>1513</ele>
        <time>2018-11-27T09:24:31Z</time>
      </trkpt>
      <trkpt lat="43.74955" lon="6.79772">
        <ele>1509</ele>
        <time>2018-11-27T09:24:36Z</time>
      </trkpt>
      <trkpt lat="43.7495" lon="6.79769">
        <ele>1509</ele>
        <time>2018-11-27T09:24:40Z</time>
      </trkpt>
      <trkpt lat="43.74946" lon="6.79766">
        <ele>1511</ele>
        <time>2018-11-27T09:24:45Z</time>
      </trkpt>
      <trkpt lat="43.74942" lon="6.79762">
        <ele>1513</ele>
        <time>2018-11-27T09:24:51Z</time>
      </trkpt>
      <trkpt lat="43.74939" lon="6.79758">
        <ele>1517</ele>
        <time>2018-11-27T09:24:58Z</time>
      </trkpt>
      <trkpt lat="43.74935" lon="6.79764">
        <ele>1517</ele>
        <time>2018-11-27T09:25:02Z</time>
      </trkpt>
      <trkpt lat="43.74928" lon="6.79768">
        <ele>1520</ele>
        <time>2018-11-27T09:25:08Z</time>
      </trkpt>
      <trkpt lat="43.74924" lon="6.79773">
        <ele>1504</ele>
        <time>2018-11-27T09:25:12Z</time>
      </trkpt>
      <trkpt lat="43.74918" lon="6.79776">
        <ele>1510</ele>
        <time>2018-11-27T09:25:18Z</time>
      </trkpt>
      <trkpt lat="43.74912" lon="6.79779">
        <ele>1513</ele>
        <time>2018-11-27T09:25:25Z</time>
      </trkpt>
      <trkpt lat="43.74905" lon="6.79783">
        <ele>1512</ele>
        <time>2018-11-27T09:25:35Z</time>
      </trkpt>
      <trkpt lat="43.74902" lon="6.79789">
        <ele>1513</ele>
        <time>2018-11-27T09:25:40Z</time>
      </trkpt>
      <trkpt lat="43.74897" lon="6.79789">
        <ele>1512</ele>
        <time>2018-11-27T09:25:49Z</time>
      </trkpt>
      <trkpt lat="43.74893" lon="6.79792">
        <ele>1513</ele>
        <time>2018-11-27T09:25:52Z</time>
      </trkpt>
      <trkpt lat="43.74887" lon="6.79816">
        <ele>1514</ele>
        <time>2018-11-27T09:26:13Z</time>
      </trkpt>
      <trkpt lat="43.74882" lon="6.7982">
        <ele>1506</ele>
        <time>2018-11-27T09:26:26Z</time>
      </trkpt>
      <trkpt lat="43.74883" lon="6.79826">
        <ele>1507</ele>
        <time>2018-11-27T09:27:10Z</time>
      </trkpt>
      <trkpt lat="43.74882" lon="6.79831">
        <ele>1506</ele>
        <time>2018-11-27T09:27:48Z</time>
      </trkpt>
      <trkpt lat="43.74882" lon="6.79828">
        <ele>1506</ele>
        <time>2018-11-27T09:28:26Z</time>
      </trkpt>
      <trkpt lat="43.74877" lon="6.79832">
        <ele>1506</ele>
        <time>2018-11-27T09:28:51Z</time>
      </trkpt>
      <trkpt lat="43.74872" lon="6.79836">
        <ele>1507</ele>
        <time>2018-11-27T09:28:55Z</time>
      </trkpt>
      <trkpt lat="43.74869" lon="6.7984">
        <ele>1507</ele>
        <time>2018-11-27T09:29:05Z</time>
      </trkpt>
      <trkpt lat="43.74867" lon="6.79847">
        <ele>1507</ele>
        <time>2018-11-27T09:29:09Z</time>
      </trkpt>
      <trkpt lat="43.74866" lon="6.79853">
        <ele>1507</ele>
        <time>2018-11-27T09:29:19Z</time>
      </trkpt>
      <trkpt lat="43.74862" lon="6.79856">
        <ele>1512</ele>
        <time>2018-11-27T09:29:32Z</time>
      </trkpt>
      <trkpt lat="43.74858" lon="6.7986">
        <ele>1513</ele>
        <time>2018-11-27T09:29:37Z</time>
      </trkpt>
      <trkpt lat="43.74855" lon="6.79864">
        <ele>1516</ele>
        <time>2018-11-27T09:29:44Z</time>
      </trkpt>
      <trkpt lat="43.74851" lon="6.7987">
        <ele>1515</ele>
        <time>2018-11-27T09:29:52Z</time>
      </trkpt>
      <trkpt lat="43.74847" lon="6.79875">
        <ele>1515</ele>
        <time>2018-11-27T09:30:00Z</time>
      </trkpt>
      <trkpt lat="43.74842" lon="6.7988">
        <ele>1517</ele>
        <time>2018-11-27T09:30:05Z</time>
      </trkpt>
      <trkpt lat="43.74838" lon="6.79883">
        <ele>1520</ele>
        <time>2018-11-27T09:30:10Z</time>
      </trkpt>
      <trkpt lat="43.74829" lon="6.7988">
        <ele>1523</ele>
        <time>2018-11-27T09:30:26Z</time>
      </trkpt>
      <trkpt lat="43.74827" lon="6.79874">
        <ele>1523</ele>
        <time>2018-11-27T09:30:40Z</time>
      </trkpt>
      <trkpt lat="43.74822" lon="6.79874">
        <ele>1524</ele>
        <time>2018-11-27T09:30:44Z</time>
      </trkpt>
      <trkpt lat="43.74814" lon="6.79876">
        <ele>1523</ele>
        <time>2018-11-27T09:30:48Z</time>
      </trkpt>
      <trkpt lat="43.7481" lon="6.79877">
        <ele>1521</ele>
        <time>2018-11-27T09:30:52Z</time>
      </trkpt>
      <trkpt lat="43.74809" lon="6.79871">
        <ele>1521</ele>
        <time>2018-11-27T09:30:55Z</time>
      </trkpt>
      <trkpt lat="43.74805" lon="6.79867">
        <ele>1520</ele>
        <time>2018-11-27T09:31:00Z</time>
      </trkpt>
      <trkpt lat="43.74799" lon="6.79867">
        <ele>1521</ele>
        <time>2018-11-27T09:31:05Z</time>
      </trkpt>
      <trkpt lat="43.74795" lon="6.79865">
        <ele>1522</ele>
        <time>2018-11-27T09:31:09Z</time>
      </trkpt>
      <trkpt lat="43.74793" lon="6.7986">
        <ele>1522</ele>
        <time>2018-11-27T09:31:14Z</time>
      </trkpt>
      <trkpt lat="43.74789" lon="6.79856">
        <ele>1522</ele>
        <time>2018-11-27T09:31:18Z</time>
      </trkpt>
      <trkpt lat="43.74784" lon="6.79856">
        <ele>1521</ele>
        <time>2018-11-27T09:31:26Z</time>
      </trkpt>
      <trkpt lat="43.74774" lon="6.79851">
        <ele>1517</ele>
        <time>2018-11-27T09:31:34Z</time>
      </trkpt>
      <trkpt lat="43.7477" lon="6.79848">
        <ele>1518</ele>
        <time>2018-11-27T09:31:37Z</time>
      </trkpt>
      <trkpt lat="43.74764" lon="6.79838">
        <ele>1521</ele>
        <time>2018-11-27T09:31:44Z</time>
      </trkpt>
      <trkpt lat="43.74762" lon="6.79833">
        <ele>1523</ele>
        <time>2018-11-27T09:31:48Z</time>
      </trkpt>
      <trkpt lat="43.74758" lon="6.79828">
        <ele>1524</ele>
        <time>2018-11-27T09:31:54Z</time>
      </trkpt>
      <trkpt lat="43.74754" lon="6.79825">
        <ele>1525</ele>
        <time>2018-11-27T09:31:59Z</time>
      </trkpt>
      <trkpt lat="43.7475" lon="6.79819">
        <ele>1524</ele>
        <time>2018-11-27T09:32:05Z</time>
      </trkpt>
      <trkpt lat="43.74745" lon="6.79817">
        <ele>1525</ele>
        <time>2018-11-27T09:32:08Z</time>
      </trkpt>
      <trkpt lat="43.74742" lon="6.79812">
        <ele>1525</ele>
        <time>2018-11-27T09:32:12Z</time>
      </trkpt>
      <trkpt lat="43.7474" lon="6.79806">
        <ele>1526</ele>
        <time>2018-11-27T09:32:17Z</time>
      </trkpt>
      <trkpt lat="43.74732" lon="6.79801">
        <ele>1529</ele>
        <time>2018-11-27T09:32:26Z</time>
      </trkpt>
      <trkpt lat="43.74728" lon="6.79801">
        <ele>1527</ele>
        <time>2018-11-27T09:32:31Z</time>
      </trkpt>
      <trkpt lat="43.74724" lon="6.79798">
        <ele>1527</ele>
        <time>2018-11-27T09:32:36Z</time>
      </trkpt>
      <trkpt lat="43.74721" lon="6.79794">
        <ele>1529</ele>
        <time>2018-11-27T09:34:04Z</time>
      </trkpt>
      <trkpt lat="43.74722" lon="6.79804">
        <ele>1532</ele>
        <time>2018-11-27T09:34:41Z</time>
      </trkpt>
      <trkpt lat="43.74723" lon="6.79812">
        <ele>1531</ele>
        <time>2018-11-27T09:34:54Z</time>
      </trkpt>
      <trkpt lat="43.74717" lon="6.79807">
        <ele>1529</ele>
        <time>2018-11-27T09:35:06Z</time>
      </trkpt>
      <trkpt lat="43.74714" lon="6.79811">
        <ele>1528</ele>
        <time>2018-11-27T09:35:12Z</time>
      </trkpt>
      <trkpt lat="43.7471" lon="6.79818">
        <ele>1528</ele>
        <time>2018-11-27T09:35:18Z</time>
      </trkpt>
      <trkpt lat="43.74706" lon="6.79823">
        <ele>1525</ele>
        <time>2018-11-27T09:35:24Z</time>
      </trkpt>
      <trkpt lat="43.74712" lon="6.7983">
        <ele>1523</ele>
        <time>2018-11-27T09:35:34Z</time>
      </trkpt>
      <trkpt lat="43.74715" lon="6.79837">
        <ele>1523</ele>
        <time>2018-11-27T09:35:40Z</time>
      </trkpt>
      <trkpt lat="43.74721" lon="6.79843">
        <ele>1522</ele>
        <time>2018-11-27T09:36:23Z</time>
      </trkpt>
      <trkpt lat="43.74724" lon="6.79844">
        <ele>1523</ele>
        <time>2018-11-27T09:37:40Z</time>
      </trkpt>
      <trkpt lat="43.74723" lon="6.79841">
        <ele>1519</ele>
        <time>2018-11-27T09:39:23Z</time>
      </trkpt>
      <trkpt lat="43.74726" lon="6.79839">
        <ele>1516</ele>
        <time>2018-11-27T09:47:45Z</time>
      </trkpt>
      <trkpt lat="43.7472" lon="6.79826">
        <ele>1516</ele>
        <time>2018-11-27T09:48:20Z</time>
      </trkpt>
      <trkpt lat="43.74724" lon="6.79817">
        <ele>1519</ele>
        <time>2018-11-27T09:48:36Z</time>
      </trkpt>
      <trkpt lat="43.74721" lon="6.7981">
        <ele>1520</ele>
        <time>2018-11-27T09:48:44Z</time>
      </trkpt>
      <trkpt lat="43.74718" lon="6.79803">
        <ele>1522</ele>
        <time>2018-11-27T09:48:50Z</time>
      </trkpt>
      <trkpt lat="43.74717" lon="6.79795">
        <ele>1524</ele>
        <time>2018-11-27T09:48:55Z</time>
      </trkpt>
      <trkpt lat="43.74713" lon="6.79767">
        <ele>1532</ele>
        <time>2018-11-27T09:49:20Z</time>
      </trkpt>
      <trkpt lat="43.74712" lon="6.79761">
        <ele>1528</ele>
        <time>2018-11-27T09:49:29Z</time>
      </trkpt>
      <trkpt lat="43.74714" lon="6.79754">
        <ele>1527</ele>
        <time>2018-11-27T09:49:35Z</time>
      </trkpt>
      <trkpt lat="43.74713" lon="6.79749">
        <ele>1528</ele>
        <time>2018-11-27T09:49:40Z</time>
      </trkpt>
      <trkpt lat="43.74709" lon="6.79745">
        <ele>1527</ele>
        <time>2018-11-27T09:49:45Z</time>
      </trkpt>
      <trkpt lat="43.74706" lon="6.79741">
        <ele>1526</ele>
        <time>2018-11-27T09:49:50Z</time>
      </trkpt>
      <trkpt lat="43.74704" lon="6.79736">
        <ele>1529</ele>
        <time>2018-11-27T09:51:06Z</time>
      </trkpt>
      <trkpt lat="43.74703" lon="6.7973">
        <ele>1528</ele>
        <time>2018-11-27T09:51:12Z</time>
      </trkpt>
      <trkpt lat="43.74702" lon="6.79724">
        <ele>1527</ele>
        <time>2018-11-27T09:51:17Z</time>
      </trkpt>
      <trkpt lat="43.74702" lon="6.79717">
        <ele>1527</ele>
        <time>2018-11-27T09:51:21Z</time>
      </trkpt>
      <trkpt lat="43.74703" lon="6.79711">
        <ele>1529</ele>
        <time>2018-11-27T09:51:27Z</time>
      </trkpt>
      <trkpt lat="43.74706" lon="6.79706">
        <ele>1529</ele>
        <time>2018-11-27T09:51:34Z</time>
      </trkpt>
      <trkpt lat="43.74707" lon="6.797">
        <ele>1529</ele>
        <time>2018-11-27T09:51:48Z</time>
      </trkpt>
      <trkpt lat="43.74708" lon="6.79694">
        <ele>1528</ele>
        <time>2018-11-27T09:52:00Z</time>
      </trkpt>
      <trkpt lat="43.74709" lon="6.79686">
        <ele>1528</ele>
        <time>2018-11-27T09:52:08Z</time>
      </trkpt>
      <trkpt lat="43.74708" lon="6.79679">
        <ele>1531</ele>
        <time>2018-11-27T09:52:13Z</time>
      </trkpt>
      <trkpt lat="43.74706" lon="6.79674">
        <ele>1531</ele>
        <time>2018-11-27T09:52:18Z</time>
      </trkpt>
      <trkpt lat="43.74705" lon="6.79668">
        <ele>1532</ele>
        <time>2018-11-27T09:52:22Z</time>
      </trkpt>
      <trkpt lat="43.74705" lon="6.79662">
        <ele>1533</ele>
        <time>2018-11-27T09:52:26Z</time>
      </trkpt>
      <trkpt lat="43.74702" lon="6.79657">
        <ele>1535</ele>
        <time>2018-11-27T09:52:32Z</time>
      </trkpt>
      <trkpt lat="43.747" lon="6.79652">
        <ele>1536</ele>
        <time>2018-11-27T09:52:38Z</time>
      </trkpt>
      <trkpt lat="43.74699" lon="6.79644">
        <ele>1539</ele>
        <time>2018-11-27T09:52:44Z</time>
      </trkpt>
      <trkpt lat="43.74701" lon="6.79634">
        <ele>1539</ele>
        <time>2018-11-27T09:52:52Z</time>
      </trkpt>
      <trkpt lat="43.74703" lon="6.79626">
        <ele>1542</ele>
        <time>2018-11-27T09:52:56Z</time>
      </trkpt>
      <trkpt lat="43.74703" lon="6.79619">
        <ele>1542</ele>
        <time>2018-11-27T09:53:04Z</time>
      </trkpt>
      <trkpt lat="43.74697" lon="6.79595">
        <ele>1539</ele>
        <time>2018-11-27T09:53:25Z</time>
      </trkpt>
      <trkpt lat="43.74695" lon="6.79578">
        <ele>1506</ele>
        <time>2018-11-27T09:53:38Z</time>
      </trkpt>
      <trkpt lat="43.74696" lon="6.79573">
        <ele>1524</ele>
        <time>2018-11-27T09:53:42Z</time>
      </trkpt>
      <trkpt lat="43.74695" lon="6.79566">
        <ele>1531</ele>
        <time>2018-11-27T09:53:45Z</time>
      </trkpt>
      <trkpt lat="43.7469" lon="6.79527">
        <ele>1540</ele>
        <time>2018-11-27T09:54:17Z</time>
      </trkpt>
      <trkpt lat="43.74689" lon="6.79521">
        <ele>1542</ele>
        <time>2018-11-27T09:54:23Z</time>
      </trkpt>
      <trkpt lat="43.74687" lon="6.79513">
        <ele>1541</ele>
        <time>2018-11-27T09:54:33Z</time>
      </trkpt>
      <trkpt lat="43.74687" lon="6.79506">
        <ele>1545</ele>
        <time>2018-11-27T09:54:38Z</time>
      </trkpt>
      <trkpt lat="43.74686" lon="6.79498">
        <ele>1546</ele>
        <time>2018-11-27T09:54:42Z</time>
      </trkpt>
      <trkpt lat="43.74687" lon="6.79493">
        <ele>1546</ele>
        <time>2018-11-27T09:54:50Z</time>
      </trkpt>
      <trkpt lat="43.74686" lon="6.79486">
        <ele>1545</ele>
        <time>2018-11-27T09:54:56Z</time>
      </trkpt>
      <trkpt lat="43.74692" lon="6.79479">
        <ele>1543</ele>
        <time>2018-11-27T09:55:08Z</time>
      </trkpt>
      <trkpt lat="43.74695" lon="6.79461">
        <ele>1541</ele>
        <time>2018-11-27T09:55:27Z</time>
      </trkpt>
      <trkpt lat="43.74692" lon="6.79451">
        <ele>1542</ele>
        <time>2018-11-27T09:55:32Z</time>
      </trkpt>
      <trkpt lat="43.74693" lon="6.79439">
        <ele>1544</ele>
        <time>2018-11-27T09:55:41Z</time>
      </trkpt>
      <trkpt lat="43.74693" lon="6.7943">
        <ele>1545</ele>
        <time>2018-11-27T09:55:50Z</time>
      </trkpt>
      <trkpt lat="43.74694" lon="6.79422">
        <ele>1546</ele>
        <time>2018-11-27T09:55:55Z</time>
      </trkpt>
      <trkpt lat="43.74693" lon="6.79412">
        <ele>1547</ele>
        <time>2018-11-27T09:55:59Z</time>
      </trkpt>
      <trkpt lat="43.74694" lon="6.79393">
        <ele>1549</ele>
        <time>2018-11-27T09:56:09Z</time>
      </trkpt>
      <trkpt lat="43.74695" lon="6.79382">
        <ele>1551</ele>
        <time>2018-11-27T09:56:16Z</time>
      </trkpt>
      <trkpt lat="43.74696" lon="6.79375">
        <ele>1554</ele>
        <time>2018-11-27T09:56:24Z</time>
      </trkpt>
      <trkpt lat="43.747" lon="6.79365">
        <ele>1554</ele>
        <time>2018-11-27T09:56:35Z</time>
      </trkpt>
      <trkpt lat="43.74706" lon="6.79358">
        <ele>1555</ele>
        <time>2018-11-27T09:56:46Z</time>
      </trkpt>
      <trkpt lat="43.74708" lon="6.79335">
        <ele>1556</ele>
        <time>2018-11-27T09:56:56Z</time>
      </trkpt>
      <trkpt lat="43.74707" lon="6.79327">
        <ele>1556</ele>
        <time>2018-11-27T09:56:59Z</time>
      </trkpt>
      <trkpt lat="43.74707" lon="6.79315">
        <ele>1555</ele>
        <time>2018-11-27T09:57:08Z</time>
      </trkpt>
      <trkpt lat="43.74711" lon="6.79307">
        <ele>1557</ele>
        <time>2018-11-27T09:57:19Z</time>
      </trkpt>
      <trkpt lat="43.74712" lon="6.79297">
        <ele>1562</ele>
        <time>2018-11-27T09:57:26Z</time>
      </trkpt>
      <trkpt lat="43.74717" lon="6.79296">
        <ele>1562</ele>
        <time>2018-11-27T09:57:35Z</time>
      </trkpt>
      <trkpt lat="43.74724" lon="6.79276">
        <ele>1561</ele>
        <time>2018-11-27T09:57:53Z</time>
      </trkpt>
      <trkpt lat="43.74724" lon="6.79267">
        <ele>1561</ele>
        <time>2018-11-27T09:57:57Z</time>
      </trkpt>
      <trkpt lat="43.74724" lon="6.79257">
        <ele>1561</ele>
        <time>2018-11-27T09:58:02Z</time>
      </trkpt>
      <trkpt lat="43.74726" lon="6.7925">
        <ele>1559</ele>
        <time>2018-11-27T09:58:08Z</time>
      </trkpt>
      <trkpt lat="43.74728" lon="6.79241">
        <ele>1560</ele>
        <time>2018-11-27T09:58:15Z</time>
      </trkpt>
      <trkpt lat="43.74734" lon="6.79223">
        <ele>1565</ele>
        <time>2018-11-27T09:58:30Z</time>
      </trkpt>
      <trkpt lat="43.74738" lon="6.79222">
        <ele>1562</ele>
        <time>2018-11-27T09:58:39Z</time>
      </trkpt>
      <trkpt lat="43.74739" lon="6.79215">
        <ele>1562</ele>
        <time>2018-11-27T09:58:45Z</time>
      </trkpt>
      <trkpt lat="43.74741" lon="6.79205">
        <ele>1561</ele>
        <time>2018-11-27T09:58:52Z</time>
      </trkpt>
      <trkpt lat="43.74743" lon="6.79195">
        <ele>1558</ele>
        <time>2018-11-27T09:59:01Z</time>
      </trkpt>
      <trkpt lat="43.74744" lon="6.79187">
        <ele>1557</ele>
        <time>2018-11-27T09:59:06Z</time>
      </trkpt>
      <trkpt lat="43.74745" lon="6.79179">
        <ele>1559</ele>
        <time>2018-11-27T09:59:12Z</time>
      </trkpt>
      <trkpt lat="43.74748" lon="6.79165">
        <ele>1564</ele>
        <time>2018-11-27T09:59:29Z</time>
      </trkpt>
      <trkpt lat="43.74754" lon="6.79144">
        <ele>1565</ele>
        <time>2018-11-27T09:59:50Z</time>
      </trkpt>
      <trkpt lat="43.74755" lon="6.79123">
        <ele>1568</ele>
        <time>2018-11-27T10:00:07Z</time>
      </trkpt>
      <trkpt lat="43.74755" lon="6.79114">
        <ele>1570</ele>
        <time>2018-11-27T10:00:13Z</time>
      </trkpt>
      <trkpt lat="43.74754" lon="6.79106">
        <ele>1569</ele>
        <time>2018-11-27T10:00:17Z</time>
      </trkpt>
      <trkpt lat="43.74757" lon="6.791">
        <ele>1553</ele>
        <time>2018-11-27T10:00:27Z</time>
      </trkpt>
      <trkpt lat="43.74758" lon="6.79094">
        <ele>1557</ele>
        <time>2018-11-27T10:00:34Z</time>
      </trkpt>
      <trkpt lat="43.74762" lon="6.79087">
        <ele>1560</ele>
        <time>2018-11-27T10:00:45Z</time>
      </trkpt>
      <trkpt lat="43.74761" lon="6.79081">
        <ele>1566</ele>
        <time>2018-11-27T10:00:50Z</time>
      </trkpt>
      <trkpt lat="43.74762" lon="6.79073">
        <ele>1568</ele>
        <time>2018-11-27T10:00:57Z</time>
      </trkpt>
      <trkpt lat="43.74764" lon="6.79068">
        <ele>1571</ele>
        <time>2018-11-27T10:01:02Z</time>
      </trkpt>
      <trkpt lat="43.74766" lon="6.79061">
        <ele>1572</ele>
        <time>2018-11-27T10:01:07Z</time>
      </trkpt>
      <trkpt lat="43.74765" lon="6.79042">
        <ele>1570</ele>
        <time>2018-11-27T10:01:23Z</time>
      </trkpt>
      <trkpt lat="43.74765" lon="6.79036">
        <ele>1571</ele>
        <time>2018-11-27T10:01:31Z</time>
      </trkpt>
      <trkpt lat="43.74765" lon="6.79028">
        <ele>1573</ele>
        <time>2018-11-27T10:02:29Z</time>
      </trkpt>
      <trkpt lat="43.74764" lon="6.79021">
        <ele>1571</ele>
        <time>2018-11-27T10:02:32Z</time>
      </trkpt>
      <trkpt lat="43.74768" lon="6.79009">
        <ele>1574</ele>
        <time>2018-11-27T10:02:49Z</time>
      </trkpt>
      <trkpt lat="43.74767" lon="6.78999">
        <ele>1575</ele>
        <time>2018-11-27T10:02:54Z</time>
      </trkpt>
      <trkpt lat="43.74771" lon="6.78993">
        <ele>1576</ele>
        <time>2018-11-27T10:03:07Z</time>
      </trkpt>
      <trkpt lat="43.74774" lon="6.78988">
        <ele>1576</ele>
        <time>2018-11-27T10:03:11Z</time>
      </trkpt>
      <trkpt lat="43.74773" lon="6.78982">
        <ele>1577</ele>
        <time>2018-11-27T10:03:22Z</time>
      </trkpt>
      <trkpt lat="43.74774" lon="6.78977">
        <ele>1577</ele>
        <time>2018-11-27T10:03:30Z</time>
      </trkpt>
      <trkpt lat="43.74775" lon="6.78971">
        <ele>1578</ele>
        <time>2018-11-27T10:03:35Z</time>
      </trkpt>
      <trkpt lat="43.74776" lon="6.78964">
        <ele>1578</ele>
        <time>2018-11-27T10:03:40Z</time>
      </trkpt>
      <trkpt lat="43.74778" lon="6.7895">
        <ele>1580</ele>
        <time>2018-11-27T10:03:51Z</time>
      </trkpt>
      <trkpt lat="43.74778" lon="6.78944">
        <ele>1582</ele>
        <time>2018-11-27T10:03:58Z</time>
      </trkpt>
      <trkpt lat="43.74779" lon="6.78938">
        <ele>1583</ele>
        <time>2018-11-27T10:04:03Z</time>
      </trkpt>
      <trkpt lat="43.7478" lon="6.7893">
        <ele>1583</ele>
        <time>2018-11-27T10:04:10Z</time>
      </trkpt>
      <trkpt lat="43.74779" lon="6.78923">
        <ele>1586</ele>
        <time>2018-11-27T10:04:15Z</time>
      </trkpt>
      <trkpt lat="43.74782" lon="6.78915">
        <ele>1587</ele>
        <time>2018-11-27T10:04:26Z</time>
      </trkpt>
      <trkpt lat="43.74783" lon="6.78909">
        <ele>1592</ele>
        <time>2018-11-27T10:04:31Z</time>
      </trkpt>
      <trkpt lat="43.74787" lon="6.78904">
        <ele>1594</ele>
        <time>2018-11-27T10:04:37Z</time>
      </trkpt>
      <trkpt lat="43.74792" lon="6.78891">
        <ele>1598</ele>
        <time>2018-11-27T10:04:54Z</time>
      </trkpt>
      <trkpt lat="43.74788" lon="6.78886">
        <ele>1599</ele>
        <time>2018-11-27T10:04:58Z</time>
      </trkpt>
      <trkpt lat="43.74789" lon="6.78857">
        <ele>1594</ele>
        <time>2018-11-27T10:05:18Z</time>
      </trkpt>
      <trkpt lat="43.74791" lon="6.78852">
        <ele>1596</ele>
        <time>2018-11-27T10:05:26Z</time>
      </trkpt>
      <trkpt lat="43.74794" lon="6.78845">
        <ele>1597</ele>
        <time>2018-11-27T10:05:38Z</time>
      </trkpt>
      <trkpt lat="43.74795" lon="6.78839">
        <ele>1600</ele>
        <time>2018-11-27T10:05:45Z</time>
      </trkpt>
      <trkpt lat="43.74796" lon="6.78833">
        <ele>1601</ele>
        <time>2018-11-27T10:05:54Z</time>
      </trkpt>
      <trkpt lat="43.74794" lon="6.78821">
        <ele>1600</ele>
        <time>2018-11-27T10:06:11Z</time>
      </trkpt>
      <trkpt lat="43.74793" lon="6.78809">
        <ele>1604</ele>
        <time>2018-11-27T10:06:23Z</time>
      </trkpt>
      <trkpt lat="43.74795" lon="6.78803">
        <ele>1605</ele>
        <time>2018-11-27T10:06:29Z</time>
      </trkpt>
      <trkpt lat="43.74796" lon="6.78797">
        <ele>1604</ele>
        <time>2018-11-27T10:06:36Z</time>
      </trkpt>
      <trkpt lat="43.74795" lon="6.7879">
        <ele>1605</ele>
        <time>2018-11-27T10:06:41Z</time>
      </trkpt>
      <trkpt lat="43.74794" lon="6.78784">
        <ele>1608</ele>
        <time>2018-11-27T10:06:46Z</time>
      </trkpt>
      <trkpt lat="43.74796" lon="6.78778">
        <ele>1609</ele>
        <time>2018-11-27T10:06:55Z</time>
      </trkpt>
      <trkpt lat="43.74796" lon="6.78771">
        <ele>1611</ele>
        <time>2018-11-27T10:07:00Z</time>
      </trkpt>
      <trkpt lat="43.74794" lon="6.78764">
        <ele>1611</ele>
        <time>2018-11-27T10:07:08Z</time>
      </trkpt>
      <trkpt lat="43.74792" lon="6.78748">
        <ele>1612</ele>
        <time>2018-11-27T10:07:23Z</time>
      </trkpt>
      <trkpt lat="43.74791" lon="6.78741">
        <ele>1613</ele>
        <time>2018-11-27T10:07:30Z</time>
      </trkpt>
      <trkpt lat="43.74792" lon="6.78735">
        <ele>1614</ele>
        <time>2018-11-27T10:07:40Z</time>
      </trkpt>
      <trkpt lat="43.74789" lon="6.78728">
        <ele>1615</ele>
        <time>2018-11-27T10:07:52Z</time>
      </trkpt>
      <trkpt lat="43.74787" lon="6.78723">
        <ele>1618</ele>
        <time>2018-11-27T10:07:56Z</time>
      </trkpt>
      <trkpt lat="43.74787" lon="6.78717">
        <ele>1619</ele>
        <time>2018-11-27T10:08:02Z</time>
      </trkpt>
      <trkpt lat="43.74786" lon="6.78711">
        <ele>1619</ele>
        <time>2018-11-27T10:08:08Z</time>
      </trkpt>
      <trkpt lat="43.74785" lon="6.78705">
        <ele>1619</ele>
        <time>2018-11-27T10:08:15Z</time>
      </trkpt>
      <trkpt lat="43.74788" lon="6.78698">
        <ele>1620</ele>
        <time>2018-11-27T10:08:22Z</time>
      </trkpt>
      <trkpt lat="43.74788" lon="6.78692">
        <ele>1621</ele>
        <time>2018-11-27T10:08:35Z</time>
      </trkpt>
      <trkpt lat="43.74787" lon="6.78686">
        <ele>1625</ele>
        <time>2018-11-27T10:08:42Z</time>
      </trkpt>
      <trkpt lat="43.74788" lon="6.78677">
        <ele>1627</ele>
        <time>2018-11-27T10:08:52Z</time>
      </trkpt>
      <trkpt lat="43.74791" lon="6.7867">
        <ele>1602</ele>
        <time>2018-11-27T10:09:02Z</time>
      </trkpt>
      <trkpt lat="43.74792" lon="6.78661">
        <ele>1609</ele>
        <time>2018-11-27T10:09:10Z</time>
      </trkpt>
      <trkpt lat="43.7479" lon="6.78655">
        <ele>1623</ele>
        <time>2018-11-27T10:09:18Z</time>
      </trkpt>
      <trkpt lat="43.74793" lon="6.78648">
        <ele>1625</ele>
        <time>2018-11-27T10:09:25Z</time>
      </trkpt>
      <trkpt lat="43.74794" lon="6.78637">
        <ele>1630</ele>
        <time>2018-11-27T10:09:32Z</time>
      </trkpt>
      <trkpt lat="43.74794" lon="6.78629">
        <ele>1630</ele>
        <time>2018-11-27T10:09:41Z</time>
      </trkpt>
      <trkpt lat="43.74796" lon="6.78614">
        <ele>1631</ele>
        <time>2018-11-27T10:09:53Z</time>
      </trkpt>
      <trkpt lat="43.74795" lon="6.78607">
        <ele>1631</ele>
        <time>2018-11-27T10:09:58Z</time>
      </trkpt>
      <trkpt lat="43.74792" lon="6.78603">
        <ele>1633</ele>
        <time>2018-11-27T10:10:08Z</time>
      </trkpt>
      <trkpt lat="43.74791" lon="6.78596">
        <ele>1633</ele>
        <time>2018-11-27T10:10:12Z</time>
      </trkpt>
      <trkpt lat="43.74786" lon="6.78591">
        <ele>1633</ele>
        <time>2018-11-27T10:10:16Z</time>
      </trkpt>
      <trkpt lat="43.74784" lon="6.78586">
        <ele>1634</ele>
        <time>2018-11-27T10:10:21Z</time>
      </trkpt>
      <trkpt lat="43.74783" lon="6.7858">
        <ele>1636</ele>
        <time>2018-11-27T10:10:27Z</time>
      </trkpt>
      <trkpt lat="43.74781" lon="6.78572">
        <ele>1637</ele>
        <time>2018-11-27T10:10:32Z</time>
      </trkpt>
      <trkpt lat="43.74782" lon="6.78566">
        <ele>1636</ele>
        <time>2018-11-27T10:10:38Z</time>
      </trkpt>
      <trkpt lat="43.74782" lon="6.78561">
        <ele>1634</ele>
        <time>2018-11-27T10:10:45Z</time>
      </trkpt>
      <trkpt lat="43.7478" lon="6.78555">
        <ele>1634</ele>
        <time>2018-11-27T10:10:50Z</time>
      </trkpt>
      <trkpt lat="43.74779" lon="6.78549">
        <ele>1636</ele>
        <time>2018-11-27T10:10:56Z</time>
      </trkpt>
      <trkpt lat="43.74778" lon="6.78543">
        <ele>1637</ele>
        <time>2018-11-27T10:11:00Z</time>
      </trkpt>
      <trkpt lat="43.74775" lon="6.78539">
        <ele>1639</ele>
        <time>2018-11-27T10:11:04Z</time>
      </trkpt>
      <trkpt lat="43.74775" lon="6.78533">
        <ele>1639</ele>
        <time>2018-11-27T10:11:11Z</time>
      </trkpt>
      <trkpt lat="43.74776" lon="6.78527">
        <ele>1628</ele>
        <time>2018-11-27T10:11:29Z</time>
      </trkpt>
      <trkpt lat="43.74774" lon="6.78522">
        <ele>1636</ele>
        <time>2018-11-27T10:12:07Z</time>
      </trkpt>
      <trkpt lat="43.7477" lon="6.7852">
        <ele>1640</ele>
        <time>2018-11-27T10:12:53Z</time>
      </trkpt>
      <trkpt lat="43.74773" lon="6.78516">
        <ele>1644</ele>
        <time>2018-11-27T10:13:07Z</time>
      </trkpt>
      <trkpt lat="43.74776" lon="6.78513">
        <ele>1645</ele>
        <time>2018-11-27T10:13:44Z</time>
      </trkpt>
      <trkpt lat="43.74783" lon="6.78498">
        <ele>1643</ele>
        <time>2018-11-27T10:14:05Z</time>
      </trkpt>
      <trkpt lat="43.74784" lon="6.78492">
        <ele>1644</ele>
        <time>2018-11-27T10:14:10Z</time>
      </trkpt>
      <trkpt lat="43.74785" lon="6.78486">
        <ele>1644</ele>
        <time>2018-11-27T10:14:14Z</time>
      </trkpt>
      <trkpt lat="43.7479" lon="6.78469">
        <ele>1645</ele>
        <time>2018-11-27T10:14:30Z</time>
      </trkpt>
      <trkpt lat="43.7479" lon="6.78464">
        <ele>1645</ele>
        <time>2018-11-27T10:14:33Z</time>
      </trkpt>
      <trkpt lat="43.74792" lon="6.78458">
        <ele>1648</ele>
        <time>2018-11-27T10:14:37Z</time>
      </trkpt>
      <trkpt lat="43.74794" lon="6.78446">
        <ele>1646</ele>
        <time>2018-11-27T10:14:45Z</time>
      </trkpt>
      <trkpt lat="43.74796" lon="6.7844">
        <ele>1645</ele>
        <time>2018-11-27T10:14:48Z</time>
      </trkpt>
      <trkpt lat="43.74798" lon="6.78435">
        <ele>1645</ele>
        <time>2018-11-27T10:14:51Z</time>
      </trkpt>
      <trkpt lat="43.748" lon="6.78431">
        <ele>1643</ele>
        <time>2018-11-27T10:14:55Z</time>
      </trkpt>
      <trkpt lat="43.74801" lon="6.78424">
        <ele>1641</ele>
        <time>2018-11-27T10:15:00Z</time>
      </trkpt>
      <trkpt lat="43.74802" lon="6.78418">
        <ele>1639</ele>
        <time>2018-11-27T10:15:04Z</time>
      </trkpt>
      <trkpt lat="43.74806" lon="6.78405">
        <ele>1639</ele>
        <time>2018-11-27T10:15:12Z</time>
      </trkpt>
      <trkpt lat="43.74811" lon="6.78391">
        <ele>1643</ele>
        <time>2018-11-27T10:15:25Z</time>
      </trkpt>
      <trkpt lat="43.74812" lon="6.78386">
        <ele>1645</ele>
        <time>2018-11-27T10:15:28Z</time>
      </trkpt>
      <trkpt lat="43.74816" lon="6.78368">
        <ele>1644</ele>
        <time>2018-11-27T10:15:39Z</time>
      </trkpt>
      <trkpt lat="43.74818" lon="6.78362">
        <ele>1642</ele>
        <time>2018-11-27T10:15:43Z</time>
      </trkpt>
      <trkpt lat="43.74824" lon="6.78346">
        <ele>1641</ele>
        <time>2018-11-27T10:15:58Z</time>
      </trkpt>
      <trkpt lat="43.74826" lon="6.78334">
        <ele>1641</ele>
        <time>2018-11-27T10:16:09Z</time>
      </trkpt>
      <trkpt lat="43.74827" lon="6.78328">
        <ele>1640</ele>
        <time>2018-11-27T10:16:15Z</time>
      </trkpt>
      <trkpt lat="43.74836" lon="6.78315">
        <ele>1643</ele>
        <time>2018-11-27T10:16:30Z</time>
      </trkpt>
      <trkpt lat="43.74839" lon="6.78297">
        <ele>1646</ele>
        <time>2018-11-27T10:16:52Z</time>
      </trkpt>
      <trkpt lat="43.74839" lon="6.78291">
        <ele>1646</ele>
        <time>2018-11-27T10:16:57Z</time>
      </trkpt>
      <trkpt lat="43.74843" lon="6.78273">
        <ele>1645</ele>
        <time>2018-11-27T10:17:16Z</time>
      </trkpt>
      <trkpt lat="43.74844" lon="6.78268">
        <ele>1645</ele>
        <time>2018-11-27T10:17:23Z</time>
      </trkpt>
      <trkpt lat="43.74846" lon="6.78262">
        <ele>1647</ele>
        <time>2018-11-27T10:17:26Z</time>
      </trkpt>
      <trkpt lat="43.74848" lon="6.78255">
        <ele>1648</ele>
        <time>2018-11-27T10:17:29Z</time>
      </trkpt>
      <trkpt lat="43.7485" lon="6.7825">
        <ele>1650</ele>
        <time>2018-11-27T10:17:34Z</time>
      </trkpt>
      <trkpt lat="43.74851" lon="6.78243">
        <ele>1647</ele>
        <time>2018-11-27T10:17:43Z</time>
      </trkpt>
      <trkpt lat="43.7485" lon="6.78237">
        <ele>1645</ele>
        <time>2018-11-27T10:17:46Z</time>
      </trkpt>
      <trkpt lat="43.74849" lon="6.78231">
        <ele>1644</ele>
        <time>2018-11-27T10:17:49Z</time>
      </trkpt>
      <trkpt lat="43.74852" lon="6.78225">
        <ele>1644</ele>
        <time>2018-11-27T10:17:53Z</time>
      </trkpt>
      <trkpt lat="43.74855" lon="6.7822">
        <ele>1643</ele>
        <time>2018-11-27T10:17:59Z</time>
      </trkpt>
      <trkpt lat="43.74858" lon="6.78214">
        <ele>1645</ele>
        <time>2018-11-27T10:18:07Z</time>
      </trkpt>
      <trkpt lat="43.74865" lon="6.78194">
        <ele>1646</ele>
        <time>2018-11-27T10:18:26Z</time>
      </trkpt>
      <trkpt lat="43.74867" lon="6.78186">
        <ele>1648</ele>
        <time>2018-11-27T10:18:31Z</time>
      </trkpt>
      <trkpt lat="43.74866" lon="6.78179">
        <ele>1630</ele>
        <time>2018-11-27T10:18:45Z</time>
      </trkpt>
      <trkpt lat="43.74865" lon="6.78173">
        <ele>1639</ele>
        <time>2018-11-27T10:20:25Z</time>
      </trkpt>
      <trkpt lat="43.74869" lon="6.7817">
        <ele>1637</ele>
        <time>2018-11-27T10:22:15Z</time>
      </trkpt>
      <trkpt lat="43.74874" lon="6.78165">
        <ele>1642</ele>
        <time>2018-11-27T10:22:27Z</time>
      </trkpt>
      <trkpt lat="43.74881" lon="6.78168">
        <ele>1630</ele>
        <time>2018-11-27T10:22:40Z</time>
      </trkpt>
      <trkpt lat="43.74886" lon="6.78171">
        <ele>1631</ele>
        <time>2018-11-27T10:22:52Z</time>
      </trkpt>
      <trkpt lat="43.74897" lon="6.78175">
        <ele>1639</ele>
        <time>2018-11-27T10:23:06Z</time>
      </trkpt>
      <trkpt lat="43.74903" lon="6.78176">
        <ele>1643</ele>
        <time>2018-11-27T10:23:12Z</time>
      </trkpt>
      <trkpt lat="43.74909" lon="6.78174">
        <ele>1643</ele>
        <time>2018-11-27T10:23:23Z</time>
      </trkpt>
      <trkpt lat="43.74913" lon="6.78173">
        <ele>1646</ele>
        <time>2018-11-27T10:23:28Z</time>
      </trkpt>
      <trkpt lat="43.74917" lon="6.78169">
        <ele>1642</ele>
        <time>2018-11-27T10:23:35Z</time>
      </trkpt>
      <trkpt lat="43.74926" lon="6.78159">
        <ele>1636</ele>
        <time>2018-11-27T10:23:46Z</time>
      </trkpt>
      <trkpt lat="43.7493" lon="6.78161">
        <ele>1634</ele>
        <time>2018-11-27T10:23:53Z</time>
      </trkpt>
      <trkpt lat="43.74934" lon="6.78154">
        <ele>1631</ele>
        <time>2018-11-27T10:24:01Z</time>
      </trkpt>
      <trkpt lat="43.74943" lon="6.78146">
        <ele>1630</ele>
        <time>2018-11-27T10:24:17Z</time>
      </trkpt>
      <trkpt lat="43.74945" lon="6.78141">
        <ele>1628</ele>
        <time>2018-11-27T10:24:21Z</time>
      </trkpt>
      <trkpt lat="43.74949" lon="6.78138">
        <ele>1628</ele>
        <time>2018-11-27T10:24:26Z</time>
      </trkpt>
      <trkpt lat="43.74953" lon="6.78136">
        <ele>1627</ele>
        <time>2018-11-27T10:24:31Z</time>
      </trkpt>
      <trkpt lat="43.74959" lon="6.78122">
        <ele>1626</ele>
        <time>2018-11-27T10:24:46Z</time>
      </trkpt>
      <trkpt lat="43.74962" lon="6.78117">
        <ele>1627</ele>
        <time>2018-11-27T10:24:50Z</time>
      </trkpt>
      <trkpt lat="43.74973" lon="6.78105">
        <ele>1627</ele>
        <time>2018-11-27T10:25:02Z</time>
      </trkpt>
      <trkpt lat="43.74977" lon="6.78101">
        <ele>1628</ele>
        <time>2018-11-27T10:25:06Z</time>
      </trkpt>
      <trkpt lat="43.74985" lon="6.78092">
        <ele>1626</ele>
        <time>2018-11-27T10:25:17Z</time>
      </trkpt>
      <trkpt lat="43.74988" lon="6.78088">
        <ele>1626</ele>
        <time>2018-11-27T10:25:25Z</time>
      </trkpt>
      <trkpt lat="43.74991" lon="6.7808">
        <ele>1626</ele>
        <time>2018-11-27T10:25:29Z</time>
      </trkpt>
      <trkpt lat="43.74994" lon="6.78075">
        <ele>1625</ele>
        <time>2018-11-27T10:25:35Z</time>
      </trkpt>
      <trkpt lat="43.74995" lon="6.7807">
        <ele>1622</ele>
        <time>2018-11-27T10:25:40Z</time>
      </trkpt>
      <trkpt lat="43.74996" lon="6.78064">
        <ele>1623</ele>
        <time>2018-11-27T10:25:45Z</time>
      </trkpt>
      <trkpt lat="43.74998" lon="6.78057">
        <ele>1622</ele>
        <time>2018-11-27T10:25:50Z</time>
      </trkpt>
      <trkpt lat="43.75002" lon="6.78051">
        <ele>1618</ele>
        <time>2018-11-27T10:25:58Z</time>
      </trkpt>
      <trkpt lat="43.75004" lon="6.78039">
        <ele>1615</ele>
        <time>2018-11-27T10:26:07Z</time>
      </trkpt>
      <trkpt lat="43.75007" lon="6.78034">
        <ele>1614</ele>
        <time>2018-11-27T10:26:12Z</time>
      </trkpt>
      <trkpt lat="43.75009" lon="6.78029">
        <ele>1612</ele>
        <time>2018-11-27T10:26:16Z</time>
      </trkpt>
      <trkpt lat="43.75009" lon="6.78023">
        <ele>1610</ele>
        <time>2018-11-27T10:26:30Z</time>
      </trkpt>
      <trkpt lat="43.75013" lon="6.78011">
        <ele>1613</ele>
        <time>2018-11-27T10:26:43Z</time>
      </trkpt>
      <trkpt lat="43.75031" lon="6.77982">
        <ele>1617</ele>
        <time>2018-11-27T10:27:18Z</time>
      </trkpt>
      <trkpt lat="43.75039" lon="6.77976">
        <ele>1615</ele>
        <time>2018-11-27T10:27:32Z</time>
      </trkpt>
      <trkpt lat="43.75045" lon="6.77963">
        <ele>1611</ele>
        <time>2018-11-27T10:27:41Z</time>
      </trkpt>
      <trkpt lat="43.75053" lon="6.77953">
        <ele>1610</ele>
        <time>2018-11-27T10:27:53Z</time>
      </trkpt>
      <trkpt lat="43.75058" lon="6.77947">
        <ele>1612</ele>
        <time>2018-11-27T10:27:59Z</time>
      </trkpt>
      <trkpt lat="43.75063" lon="6.77939">
        <ele>1611</ele>
        <time>2018-11-27T10:28:08Z</time>
      </trkpt>
      <trkpt lat="43.75067" lon="6.77932">
        <ele>1611</ele>
        <time>2018-11-27T10:28:17Z</time>
      </trkpt>
      <trkpt lat="43.75071" lon="6.77925">
        <ele>1608</ele>
        <time>2018-11-27T10:28:23Z</time>
      </trkpt>
      <trkpt lat="43.75073" lon="6.77919">
        <ele>1606</ele>
        <time>2018-11-27T10:28:29Z</time>
      </trkpt>
      <trkpt lat="43.75095" lon="6.77898">
        <ele>1602</ele>
        <time>2018-11-27T10:29:02Z</time>
      </trkpt>
      <trkpt lat="43.75103" lon="6.77893">
        <ele>1602</ele>
        <time>2018-11-27T10:29:14Z</time>
      </trkpt>
      <trkpt lat="43.75109" lon="6.77891">
        <ele>1603</ele>
        <time>2018-11-27T10:29:20Z</time>
      </trkpt>
      <trkpt lat="43.75117" lon="6.77881">
        <ele>1603</ele>
        <time>2018-11-27T10:29:30Z</time>
      </trkpt>
      <trkpt lat="43.75119" lon="6.77876">
        <ele>1597</ele>
        <time>2018-11-27T10:29:36Z</time>
      </trkpt>
      <trkpt lat="43.75124" lon="6.77873">
        <ele>1598</ele>
        <time>2018-11-27T10:29:43Z</time>
      </trkpt>
      <trkpt lat="43.75129" lon="6.77871">
        <ele>1594</ele>
        <time>2018-11-27T10:29:50Z</time>
      </trkpt>
      <trkpt lat="43.75134" lon="6.77867">
        <ele>1596</ele>
        <time>2018-11-27T10:29:58Z</time>
      </trkpt>
      <trkpt lat="43.75137" lon="6.77864">
        <ele>1598</ele>
        <time>2018-11-27T10:30:04Z</time>
      </trkpt>
      <trkpt lat="43.75151" lon="6.77842">
        <ele>1597</ele>
        <time>2018-11-27T10:30:27Z</time>
      </trkpt>
      <trkpt lat="43.75156" lon="6.77838">
        <ele>1597</ele>
        <time>2018-11-27T10:30:34Z</time>
      </trkpt>
      <trkpt lat="43.75167" lon="6.77824">
        <ele>1598</ele>
        <time>2018-11-27T10:30:49Z</time>
      </trkpt>
      <trkpt lat="43.75172" lon="6.77817">
        <ele>1597</ele>
        <time>2018-11-27T10:30:58Z</time>
      </trkpt>
      <trkpt lat="43.75178" lon="6.77802">
        <ele>1595</ele>
        <time>2018-11-27T10:31:13Z</time>
      </trkpt>
      <trkpt lat="43.75178" lon="6.77794">
        <ele>1591</ele>
        <time>2018-11-27T10:31:19Z</time>
      </trkpt>
      <trkpt lat="43.75175" lon="6.7779">
        <ele>1582</ele>
        <time>2018-11-27T10:33:03Z</time>
      </trkpt>
      <trkpt lat="43.75178" lon="6.77784">
        <ele>1583</ele>
        <time>2018-11-27T10:33:35Z</time>
      </trkpt>
      <trkpt lat="43.75184" lon="6.77779">
        <ele>1590</ele>
        <time>2018-11-27T10:33:40Z</time>
      </trkpt>
      <trkpt lat="43.75187" lon="6.77773">
        <ele>1592</ele>
        <time>2018-11-27T10:33:44Z</time>
      </trkpt>
      <trkpt lat="43.75199" lon="6.77766">
        <ele>1587</ele>
        <time>2018-11-27T10:33:58Z</time>
      </trkpt>
      <trkpt lat="43.75204" lon="6.77762">
        <ele>1587</ele>
        <time>2018-11-27T10:34:03Z</time>
      </trkpt>
      <trkpt lat="43.75209" lon="6.77755">
        <ele>1588</ele>
        <time>2018-11-27T10:34:08Z</time>
      </trkpt>
      <trkpt lat="43.75222" lon="6.77731">
        <ele>1589</ele>
        <time>2018-11-27T10:34:24Z</time>
      </trkpt>
      <trkpt lat="43.75234" lon="6.77722">
        <ele>1586</ele>
        <time>2018-11-27T10:34:44Z</time>
      </trkpt>
      <trkpt lat="43.75235" lon="6.77716">
        <ele>1586</ele>
        <time>2018-11-27T10:34:48Z</time>
      </trkpt>
      <trkpt lat="43.75247" lon="6.77697">
        <ele>1584</ele>
        <time>2018-11-27T10:35:10Z</time>
      </trkpt>
      <trkpt lat="43.75251" lon="6.77691">
        <ele>1584</ele>
        <time>2018-11-27T10:35:16Z</time>
      </trkpt>
      <trkpt lat="43.75254" lon="6.77686">
        <ele>1584</ele>
        <time>2018-11-27T10:35:23Z</time>
      </trkpt>
      <trkpt lat="43.75256" lon="6.7768">
        <ele>1585</ele>
        <time>2018-11-27T10:35:27Z</time>
      </trkpt>
      <trkpt lat="43.7526" lon="6.77675">
        <ele>1585</ele>
        <time>2018-11-27T10:35:34Z</time>
      </trkpt>
      <trkpt lat="43.75264" lon="6.77669">
        <ele>1583</ele>
        <time>2018-11-27T10:35:39Z</time>
      </trkpt>
      <trkpt lat="43.75265" lon="6.77663">
        <ele>1581</ele>
        <time>2018-11-27T10:35:44Z</time>
      </trkpt>
      <trkpt lat="43.75268" lon="6.77657">
        <ele>1580</ele>
        <time>2018-11-27T10:35:50Z</time>
      </trkpt>
      <trkpt lat="43.75271" lon="6.77638">
        <ele>1573</ele>
        <time>2018-11-27T10:36:08Z</time>
      </trkpt>
      <trkpt lat="43.75272" lon="6.77631">
        <ele>1573</ele>
        <time>2018-11-27T10:36:18Z</time>
      </trkpt>
      <trkpt lat="43.75274" lon="6.77622">
        <ele>1574</ele>
        <time>2018-11-27T10:36:23Z</time>
      </trkpt>
      <trkpt lat="43.75276" lon="6.77615">
        <ele>1580</ele>
        <time>2018-11-27T10:36:27Z</time>
      </trkpt>
      <trkpt lat="43.75276" lon="6.77607">
        <ele>1591</ele>
        <time>2018-11-27T10:36:33Z</time>
      </trkpt>
      <trkpt lat="43.75279" lon="6.77598">
        <ele>1590</ele>
        <time>2018-11-27T10:36:39Z</time>
      </trkpt>
      <trkpt lat="43.7528" lon="6.77591">
        <ele>1580</ele>
        <time>2018-11-27T10:36:46Z</time>
      </trkpt>
      <trkpt lat="43.75284" lon="6.77578">
        <ele>1579</ele>
        <time>2018-11-27T10:36:53Z</time>
      </trkpt>
      <trkpt lat="43.75286" lon="6.7757">
        <ele>1578</ele>
        <time>2018-11-27T10:36:57Z</time>
      </trkpt>
      <trkpt lat="43.75296" lon="6.77541">
        <ele>1580</ele>
        <time>2018-11-27T10:37:26Z</time>
      </trkpt>
      <trkpt lat="43.75298" lon="6.77533">
        <ele>1580</ele>
        <time>2018-11-27T10:37:34Z</time>
      </trkpt>
      <trkpt lat="43.75299" lon="6.77528">
        <ele>1579</ele>
        <time>2018-11-27T10:37:38Z</time>
      </trkpt>
      <trkpt lat="43.75303" lon="6.77514">
        <ele>1580</ele>
        <time>2018-11-27T10:37:46Z</time>
      </trkpt>
      <trkpt lat="43.75304" lon="6.77509">
        <ele>1579</ele>
        <time>2018-11-27T10:37:51Z</time>
      </trkpt>
      <trkpt lat="43.75307" lon="6.77505">
        <ele>1578</ele>
        <time>2018-11-27T10:37:58Z</time>
      </trkpt>
      <trkpt lat="43.75312" lon="6.77498">
        <ele>1578</ele>
        <time>2018-11-27T10:38:05Z</time>
      </trkpt>
      <trkpt lat="43.75315" lon="6.77493">
        <ele>1577</ele>
        <time>2018-11-27T10:38:10Z</time>
      </trkpt>
      <trkpt lat="43.75321" lon="6.77478">
        <ele>1574</ele>
        <time>2018-11-27T10:38:21Z</time>
      </trkpt>
      <trkpt lat="43.75339" lon="6.77451">
        <ele>1575</ele>
        <time>2018-11-27T10:38:49Z</time>
      </trkpt>
      <trkpt lat="43.75342" lon="6.77444">
        <ele>1573</ele>
        <time>2018-11-27T10:38:57Z</time>
      </trkpt>
      <trkpt lat="43.75352" lon="6.77426">
        <ele>1569</ele>
        <time>2018-11-27T10:39:13Z</time>
      </trkpt>
      <trkpt lat="43.75357" lon="6.77424">
        <ele>1569</ele>
        <time>2018-11-27T10:39:21Z</time>
      </trkpt>
      <trkpt lat="43.75359" lon="6.77431">
        <ele>1571</ele>
        <time>2018-11-27T10:40:20Z</time>
      </trkpt>
      <trkpt lat="43.75363" lon="6.77437">
        <ele>1570</ele>
        <time>2018-11-27T10:40:29Z</time>
      </trkpt>
      <trkpt lat="43.75369" lon="6.7744">
        <ele>1570</ele>
        <time>2018-11-27T10:40:41Z</time>
      </trkpt>
      <trkpt lat="43.75373" lon="6.77442">
        <ele>1572</ele>
        <time>2018-11-27T10:40:53Z</time>
      </trkpt>
      <trkpt lat="43.75377" lon="6.77444">
        <ele>1570</ele>
        <time>2018-11-27T10:41:03Z</time>
      </trkpt>
      <trkpt lat="43.75381" lon="6.77455">
        <ele>1570</ele>
        <time>2018-11-27T10:41:20Z</time>
      </trkpt>
      <trkpt lat="43.75385" lon="6.77453">
        <ele>1570</ele>
        <time>2018-11-27T10:41:26Z</time>
      </trkpt>
      <trkpt lat="43.75389" lon="6.77456">
        <ele>1566</ele>
        <time>2018-11-27T10:44:03Z</time>
      </trkpt>
      <trkpt lat="43.75388" lon="6.77454">
        <ele>1567</ele>
        <time>2018-11-27T10:48:15Z</time>
      </trkpt>
      <trkpt lat="43.75386" lon="6.77456">
        <ele>1567</ele>
        <time>2018-11-27T10:55:37Z</time>
      </trkpt>
      <trkpt lat="43.75385" lon="6.77459">
        <ele>1561</ele>
        <time>2018-11-27T11:04:11Z</time>
      </trkpt>
      <trkpt lat="43.75389" lon="6.77462">
        <ele>1561</ele>
        <time>2018-11-27T11:07:38Z</time>
      </trkpt>
      <trkpt lat="43.75387" lon="6.7746">
        <ele>1561</ele>
        <time>2018-11-27T11:08:36Z</time>
      </trkpt>
      <trkpt lat="43.75387" lon="6.77461">
        <ele>1562</ele>
        <time>2018-11-27T11:10:07Z</time>
      </trkpt>
      <trkpt lat="43.75386" lon="6.77457">
        <ele>1562</ele>
        <time>2018-11-27T11:12:39Z</time>
      </trkpt>
      <trkpt lat="43.75388" lon="6.77459">
        <ele>1563</ele>
        <time>2018-11-27T11:20:32Z</time>
      </trkpt>
      <trkpt lat="43.75386" lon="6.77459">
        <ele>1565</ele>
        <time>2018-11-27T11:22:34Z</time>
      </trkpt>
      <trkpt lat="43.75386" lon="6.77459">
        <ele>1564</ele>
        <time>2018-11-27T11:24:13Z</time>
      </trkpt>
      <trkpt lat="43.75389" lon="6.77464">
        <ele>1567</ele>
        <time>2018-11-27T11:27:41Z</time>
      </trkpt>
      <trkpt lat="43.75395" lon="6.77469">
        <ele>1566</ele>
        <time>2018-11-27T11:27:59Z</time>
      </trkpt>
      <trkpt lat="43.75393" lon="6.77478">
        <ele>1569</ele>
        <time>2018-11-27T11:28:07Z</time>
      </trkpt>
      <trkpt lat="43.75392" lon="6.77484">
        <ele>1572</ele>
        <time>2018-11-27T11:28:33Z</time>
      </trkpt>
      <trkpt lat="43.75398" lon="6.77482">
        <ele>1572</ele>
        <time>2018-11-27T11:29:18Z</time>
      </trkpt>
      <trkpt lat="43.75395" lon="6.77477">
        <ele>1572</ele>
        <time>2018-11-27T11:29:44Z</time>
      </trkpt>
      <trkpt lat="43.75394" lon="6.77471">
        <ele>1573</ele>
        <time>2018-11-27T11:31:08Z</time>
      </trkpt>
      <trkpt lat="43.75391" lon="6.77465">
        <ele>1572</ele>
        <time>2018-11-27T11:31:14Z</time>
      </trkpt>
      <trkpt lat="43.75386" lon="6.77466">
        <ele>1573</ele>
        <time>2018-11-27T11:31:18Z</time>
      </trkpt>
      <trkpt lat="43.75386" lon="6.7746">
        <ele>1573</ele>
        <time>2018-11-27T11:31:27Z</time>
      </trkpt>
      <trkpt lat="43.75384" lon="6.77456">
        <ele>1568</ele>
        <time>2018-11-27T11:32:30Z</time>
      </trkpt>
      <trkpt lat="43.7538" lon="6.77458">
        <ele>1568</ele>
        <time>2018-11-27T11:32:39Z</time>
      </trkpt>
      <trkpt lat="43.75377" lon="6.77461">
        <ele>1568</ele>
        <time>2018-11-27T11:32:48Z</time>
      </trkpt>
      <trkpt lat="43.7538" lon="6.77465">
        <ele>1567</ele>
        <time>2018-11-27T11:33:18Z</time>
      </trkpt>
      <trkpt lat="43.75379" lon="6.77461">
        <ele>1563</ele>
        <time>2018-11-27T11:36:03Z</time>
      </trkpt>
      <trkpt lat="43.75374" lon="6.77459">
        <ele>1563</ele>
        <time>2018-11-27T11:36:08Z</time>
      </trkpt>
      <trkpt lat="43.75371" lon="6.77464">
        <ele>1562</ele>
        <time>2018-11-27T11:36:14Z</time>
      </trkpt>
      <trkpt lat="43.75355" lon="6.77474">
        <ele>1564</ele>
        <time>2018-11-27T11:36:32Z</time>
      </trkpt>
      <trkpt lat="43.75351" lon="6.77478">
        <ele>1565</ele>
        <time>2018-11-27T11:36:35Z</time>
      </trkpt>
      <trkpt lat="43.75343" lon="6.77484">
        <ele>1566</ele>
        <time>2018-11-27T11:36:41Z</time>
      </trkpt>
      <trkpt lat="43.75325" lon="6.77496">
        <ele>1572</ele>
        <time>2018-11-27T11:37:04Z</time>
      </trkpt>
      <trkpt lat="43.75313" lon="6.77505">
        <ele>1565</ele>
        <time>2018-11-27T11:37:31Z</time>
      </trkpt>
      <trkpt lat="43.75309" lon="6.77509">
        <ele>1566</ele>
        <time>2018-11-27T11:37:37Z</time>
      </trkpt>
      <trkpt lat="43.75301" lon="6.77513">
        <ele>1569</ele>
        <time>2018-11-27T11:37:45Z</time>
      </trkpt>
      <trkpt lat="43.75295" lon="6.77527">
        <ele>1572</ele>
        <time>2018-11-27T11:37:54Z</time>
      </trkpt>
      <trkpt lat="43.75293" lon="6.77532">
        <ele>1571</ele>
        <time>2018-11-27T11:38:00Z</time>
      </trkpt>
      <trkpt lat="43.75292" lon="6.77538">
        <ele>1572</ele>
        <time>2018-11-27T11:38:05Z</time>
      </trkpt>
      <trkpt lat="43.75291" lon="6.77552">
        <ele>1565</ele>
        <time>2018-11-27T11:38:15Z</time>
      </trkpt>
      <trkpt lat="43.7529" lon="6.77567">
        <ele>1563</ele>
        <time>2018-11-27T11:38:30Z</time>
      </trkpt>
      <trkpt lat="43.75288" lon="6.77575">
        <ele>1565</ele>
        <time>2018-11-27T11:38:36Z</time>
      </trkpt>
      <trkpt lat="43.75285" lon="6.7758">
        <ele>1568</ele>
        <time>2018-11-27T11:38:41Z</time>
      </trkpt>
      <trkpt lat="43.75286" lon="6.77586">
        <ele>1568</ele>
        <time>2018-11-27T11:38:47Z</time>
      </trkpt>
      <trkpt lat="43.75284" lon="6.77593">
        <ele>1568</ele>
        <time>2018-11-27T11:38:51Z</time>
      </trkpt>
      <trkpt lat="43.7528" lon="6.77603">
        <ele>1567</ele>
        <time>2018-11-27T11:39:02Z</time>
      </trkpt>
      <trkpt lat="43.75277" lon="6.77612">
        <ele>1573</ele>
        <time>2018-11-27T11:39:13Z</time>
      </trkpt>
      <trkpt lat="43.75275" lon="6.7762">
        <ele>1570</ele>
        <time>2018-11-27T11:39:18Z</time>
      </trkpt>
      <trkpt lat="43.75276" lon="6.77636">
        <ele>1571</ele>
        <time>2018-11-27T11:39:28Z</time>
      </trkpt>
      <trkpt lat="43.75271" lon="6.77645">
        <ele>1572</ele>
        <time>2018-11-27T11:39:40Z</time>
      </trkpt>
      <trkpt lat="43.7527" lon="6.77651">
        <ele>1571</ele>
        <time>2018-11-27T11:39:44Z</time>
      </trkpt>
      <trkpt lat="43.7527" lon="6.77659">
        <ele>1570</ele>
        <time>2018-11-27T11:39:50Z</time>
      </trkpt>
      <trkpt lat="43.75274" lon="6.77665">
        <ele>1570</ele>
        <time>2018-11-27T11:39:59Z</time>
      </trkpt>
      <trkpt lat="43.75275" lon="6.7768">
        <ele>1572</ele>
        <time>2018-11-27T11:40:17Z</time>
      </trkpt>
      <trkpt lat="43.75277" lon="6.77687">
        <ele>1573</ele>
        <time>2018-11-27T11:40:28Z</time>
      </trkpt>
      <trkpt lat="43.75282" lon="6.77693">
        <ele>1533</ele>
        <time>2018-11-27T11:40:39Z</time>
      </trkpt>
      <trkpt lat="43.75286" lon="6.777">
        <ele>1550</ele>
        <time>2018-11-27T11:40:48Z</time>
      </trkpt>
      <trkpt lat="43.75292" lon="6.77706">
        <ele>1563</ele>
        <time>2018-11-27T11:40:59Z</time>
      </trkpt>
      <trkpt lat="43.75291" lon="6.77713">
        <ele>1569</ele>
        <time>2018-11-27T11:41:09Z</time>
      </trkpt>
      <trkpt lat="43.75289" lon="6.77719">
        <ele>1571</ele>
        <time>2018-11-27T11:41:13Z</time>
      </trkpt>
      <trkpt lat="43.75292" lon="6.77725">
        <ele>1571</ele>
        <time>2018-11-27T11:41:17Z</time>
      </trkpt>
      <trkpt lat="43.75294" lon="6.7775">
        <ele>1571</ele>
        <time>2018-11-27T11:41:37Z</time>
      </trkpt>
      <trkpt lat="43.75296" lon="6.77761">
        <ele>1558</ele>
        <time>2018-11-27T11:41:59Z</time>
      </trkpt>
      <trkpt lat="43.75299" lon="6.77772">
        <ele>1555</ele>
        <time>2018-11-27T11:42:08Z</time>
      </trkpt>
      <trkpt lat="43.753" lon="6.77781">
        <ele>1554</ele>
        <time>2018-11-27T11:42:14Z</time>
      </trkpt>
      <trkpt lat="43.75304" lon="6.7779">
        <ele>1550</ele>
        <time>2018-11-27T11:42:24Z</time>
      </trkpt>
      <trkpt lat="43.75316" lon="6.77814">
        <ele>1553</ele>
        <time>2018-11-27T11:42:54Z</time>
      </trkpt>
      <trkpt lat="43.75318" lon="6.77825">
        <ele>1553</ele>
        <time>2018-11-27T11:43:01Z</time>
      </trkpt>
      <trkpt lat="43.7532" lon="6.77832">
        <ele>1550</ele>
        <time>2018-11-27T11:43:16Z</time>
      </trkpt>
      <trkpt lat="43.75322" lon="6.77842">
        <ele>1547</ele>
        <time>2018-11-27T11:43:25Z</time>
      </trkpt>
      <trkpt lat="43.7533" lon="6.77866">
        <ele>1509</ele>
        <time>2018-11-27T11:43:45Z</time>
      </trkpt>
      <trkpt lat="43.75333" lon="6.77872">
        <ele>1528</ele>
        <time>2018-11-27T11:43:50Z</time>
      </trkpt>
      <trkpt lat="43.75339" lon="6.77881">
        <ele>1529</ele>
        <time>2018-11-27T11:44:00Z</time>
      </trkpt>
      <trkpt lat="43.75346" lon="6.77882">
        <ele>1535</ele>
        <time>2018-11-27T11:44:04Z</time>
      </trkpt>
      <trkpt lat="43.75348" lon="6.77895">
        <ele>1533</ele>
        <time>2018-11-27T11:44:18Z</time>
      </trkpt>
      <trkpt lat="43.75347" lon="6.77907">
        <ele>1537</ele>
        <time>2018-11-27T11:44:28Z</time>
      </trkpt>
      <trkpt lat="43.75349" lon="6.77917">
        <ele>1537</ele>
        <time>2018-11-27T11:44:38Z</time>
      </trkpt>
      <trkpt lat="43.75345" lon="6.77924">
        <ele>1536</ele>
        <time>2018-11-27T11:44:45Z</time>
      </trkpt>
      <trkpt lat="43.7534" lon="6.7794">
        <ele>1529</ele>
        <time>2018-11-27T11:45:00Z</time>
      </trkpt>
      <trkpt lat="43.75339" lon="6.7795">
        <ele>1525</ele>
        <time>2018-11-27T11:45:14Z</time>
      </trkpt>
      <trkpt lat="43.75341" lon="6.77959">
        <ele>1522</ele>
        <time>2018-11-27T11:45:20Z</time>
      </trkpt>
      <trkpt lat="43.7534" lon="6.77967">
        <ele>1522</ele>
        <time>2018-11-27T11:45:23Z</time>
      </trkpt>
      <trkpt lat="43.75335" lon="6.77973">
        <ele>1522</ele>
        <time>2018-11-27T11:45:29Z</time>
      </trkpt>
      <trkpt lat="43.75328" lon="6.77987">
        <ele>1521</ele>
        <time>2018-11-27T11:45:38Z</time>
      </trkpt>
      <trkpt lat="43.75322" lon="6.77992">
        <ele>1520</ele>
        <time>2018-11-27T11:45:46Z</time>
      </trkpt>
      <trkpt lat="43.7532" lon="6.78002">
        <ele>1516</ele>
        <time>2018-11-27T11:45:59Z</time>
      </trkpt>
      <trkpt lat="43.75315" lon="6.78009">
        <ele>1516</ele>
        <time>2018-11-27T11:46:07Z</time>
      </trkpt>
      <trkpt lat="43.75307" lon="6.78024">
        <ele>1515</ele>
        <time>2018-11-27T11:46:20Z</time>
      </trkpt>
      <trkpt lat="43.75306" lon="6.78032">
        <ele>1493</ele>
        <time>2018-11-27T11:46:26Z</time>
      </trkpt>
      <trkpt lat="43.75307" lon="6.7804">
        <ele>1500</ele>
        <time>2018-11-27T11:46:31Z</time>
      </trkpt>
      <trkpt lat="43.75305" lon="6.7805">
        <ele>1505</ele>
        <time>2018-11-27T11:46:41Z</time>
      </trkpt>
      <trkpt lat="43.75307" lon="6.78059">
        <ele>1512</ele>
        <time>2018-11-27T11:46:45Z</time>
      </trkpt>
      <trkpt lat="43.7531" lon="6.78067">
        <ele>1512</ele>
        <time>2018-11-27T11:46:50Z</time>
      </trkpt>
      <trkpt lat="43.75313" lon="6.78075">
        <ele>1513</ele>
        <time>2018-11-27T11:46:59Z</time>
      </trkpt>
      <trkpt lat="43.75327" lon="6.78089">
        <ele>1514</ele>
        <time>2018-11-27T11:47:13Z</time>
      </trkpt>
      <trkpt lat="43.75337" lon="6.781">
        <ele>1518</ele>
        <time>2018-11-27T11:47:29Z</time>
      </trkpt>
      <trkpt lat="43.7535" lon="6.78097">
        <ele>1517</ele>
        <time>2018-11-27T11:47:46Z</time>
      </trkpt>
      <trkpt lat="43.75359" lon="6.78105">
        <ele>1506</ele>
        <time>2018-11-27T11:48:00Z</time>
      </trkpt>
      <trkpt lat="43.75364" lon="6.78114">
        <ele>1499</ele>
        <time>2018-11-27T11:48:22Z</time>
      </trkpt>
      <trkpt lat="43.75372" lon="6.78123">
        <ele>1489</ele>
        <time>2018-11-27T11:48:37Z</time>
      </trkpt>
      <trkpt lat="43.75389" lon="6.78137">
        <ele>1489</ele>
        <time>2018-11-27T11:48:57Z</time>
      </trkpt>
      <trkpt lat="43.75395" lon="6.78144">
        <ele>1485</ele>
        <time>2018-11-27T11:49:06Z</time>
      </trkpt>
      <trkpt lat="43.75404" lon="6.78151">
        <ele>1483</ele>
        <time>2018-11-27T11:49:22Z</time>
      </trkpt>
      <trkpt lat="43.75412" lon="6.78158">
        <ele>1482</ele>
        <time>2018-11-27T11:49:31Z</time>
      </trkpt>
      <trkpt lat="43.75419" lon="6.78163">
        <ele>1483</ele>
        <time>2018-11-27T11:49:37Z</time>
      </trkpt>
      <trkpt lat="43.75424" lon="6.78176">
        <ele>1453</ele>
        <time>2018-11-27T11:49:50Z</time>
      </trkpt>
      <trkpt lat="43.7543" lon="6.78186">
        <ele>1461</ele>
        <time>2018-11-27T11:49:58Z</time>
      </trkpt>
      <trkpt lat="43.75444" lon="6.78202">
        <ele>1469</ele>
        <time>2018-11-27T11:50:24Z</time>
      </trkpt>
      <trkpt lat="43.75452" lon="6.7821">
        <ele>1465</ele>
        <time>2018-11-27T11:50:34Z</time>
      </trkpt>
      <trkpt lat="43.75461" lon="6.78216">
        <ele>1459</ele>
        <time>2018-11-27T11:50:45Z</time>
      </trkpt>
      <trkpt lat="43.75468" lon="6.78221">
        <ele>1453</ele>
        <time>2018-11-27T11:50:55Z</time>
      </trkpt>
      <trkpt lat="43.75461" lon="6.78227">
        <ele>1452</ele>
        <time>2018-11-27T11:51:04Z</time>
      </trkpt>
      <trkpt lat="43.75455" lon="6.78233">
        <ele>1451</ele>
        <time>2018-11-27T11:51:12Z</time>
      </trkpt>
      <trkpt lat="43.75448" lon="6.78233">
        <ele>1450</ele>
        <time>2018-11-27T11:51:35Z</time>
      </trkpt>
      <trkpt lat="43.75463" lon="6.78257">
        <ele>1448</ele>
        <time>2018-11-27T11:52:16Z</time>
      </trkpt>
      <trkpt lat="43.75471" lon="6.78261">
        <ele>1445</ele>
        <time>2018-11-27T11:52:28Z</time>
      </trkpt>
      <trkpt lat="43.75478" lon="6.78268">
        <ele>1442</ele>
        <time>2018-11-27T11:52:47Z</time>
      </trkpt>
      <trkpt lat="43.75482" lon="6.78283">
        <ele>1432</ele>
        <time>2018-11-27T11:53:01Z</time>
      </trkpt>
      <trkpt lat="43.75478" lon="6.78288">
        <ele>1443</ele>
        <time>2018-11-27T11:53:29Z</time>
      </trkpt>
      <trkpt lat="43.75487" lon="6.78295">
        <ele>1447</ele>
        <time>2018-11-27T11:53:37Z</time>
      </trkpt>
      <trkpt lat="43.75492" lon="6.78304">
        <ele>1446</ele>
        <time>2018-11-27T11:53:49Z</time>
      </trkpt>
      <trkpt lat="43.75492" lon="6.78315">
        <ele>1445</ele>
        <time>2018-11-27T11:54:01Z</time>
      </trkpt>
      <trkpt lat="43.7549" lon="6.78323">
        <ele>1441</ele>
        <time>2018-11-27T11:54:22Z</time>
      </trkpt>
      <trkpt lat="43.75497" lon="6.78331">
        <ele>1441</ele>
        <time>2018-11-27T11:54:31Z</time>
      </trkpt>
      <trkpt lat="43.75508" lon="6.78352">
        <ele>1444</ele>
        <time>2018-11-27T11:55:03Z</time>
      </trkpt>
      <trkpt lat="43.75517" lon="6.78357">
        <ele>1442</ele>
        <time>2018-11-27T11:55:14Z</time>
      </trkpt>
      <trkpt lat="43.75523" lon="6.78365">
        <ele>1430</ele>
        <time>2018-11-27T11:55:25Z</time>
      </trkpt>
      <trkpt lat="43.75532" lon="6.78372">
        <ele>1441</ele>
        <time>2018-11-27T11:55:34Z</time>
      </trkpt>
      <trkpt lat="43.75542" lon="6.78382">
        <ele>1443</ele>
        <time>2018-11-27T11:55:49Z</time>
      </trkpt>
      <trkpt lat="43.7555" lon="6.78395">
        <ele>1434</ele>
        <time>2018-11-27T11:56:10Z</time>
      </trkpt>
      <trkpt lat="43.75559" lon="6.784">
        <ele>1430</ele>
        <time>2018-11-27T11:56:24Z</time>
      </trkpt>
      <trkpt lat="43.75573" lon="6.78406">
        <ele>1425</ele>
        <time>2018-11-27T11:56:42Z</time>
      </trkpt>
      <trkpt lat="43.75585" lon="6.78409">
        <ele>1421</ele>
        <time>2018-11-27T11:56:54Z</time>
      </trkpt>
      <trkpt lat="43.75589" lon="6.78404">
        <ele>1412</ele>
        <time>2018-11-27T11:57:26Z</time>
      </trkpt>
      <trkpt lat="43.75596" lon="6.78406">
        <ele>1412</ele>
        <time>2018-11-27T11:57:52Z</time>
      </trkpt>
      <trkpt lat="43.75603" lon="6.78409">
        <ele>1411</ele>
        <time>2018-11-27T11:58:00Z</time>
      </trkpt>
      <trkpt lat="43.75617" lon="6.78416">
        <ele>1411</ele>
        <time>2018-11-27T11:58:18Z</time>
      </trkpt>
      <trkpt lat="43.75629" lon="6.78419">
        <ele>1399</ele>
        <time>2018-11-27T11:58:31Z</time>
      </trkpt>
      <trkpt lat="43.75641" lon="6.78425">
        <ele>1396</ele>
        <time>2018-11-27T11:58:55Z</time>
      </trkpt>
      <trkpt lat="43.75656" lon="6.78432">
        <ele>1393</ele>
        <time>2018-11-27T11:59:15Z</time>
      </trkpt>
      <trkpt lat="43.7567" lon="6.78436">
        <ele>1390</ele>
        <time>2018-11-27T11:59:28Z</time>
      </trkpt>
      <trkpt lat="43.75683" lon="6.78438">
        <ele>1387</ele>
        <time>2018-11-27T11:59:38Z</time>
      </trkpt>
      <trkpt lat="43.75695" lon="6.78439">
        <ele>1382</ele>
        <time>2018-11-27T11:59:55Z</time>
      </trkpt>
      <trkpt lat="43.75708" lon="6.78447">
        <ele>1379</ele>
        <time>2018-11-27T12:00:11Z</time>
      </trkpt>
      <trkpt lat="43.75722" lon="6.78451">
        <ele>1376</ele>
        <time>2018-11-27T12:00:31Z</time>
      </trkpt>
      <trkpt lat="43.75735" lon="6.78458">
        <ele>1375</ele>
        <time>2018-11-27T12:00:43Z</time>
      </trkpt>
      <trkpt lat="43.75748" lon="6.78466">
        <ele>1374</ele>
        <time>2018-11-27T12:01:03Z</time>
      </trkpt>
      <trkpt lat="43.75763" lon="6.78475">
        <ele>1374</ele>
        <time>2018-11-27T12:01:37Z</time>
      </trkpt>
      <trkpt lat="43.75776" lon="6.78483">
        <ele>1356</ele>
        <time>2018-11-27T12:01:58Z</time>
      </trkpt>
      <trkpt lat="43.7579" lon="6.78488">
        <ele>1359</ele>
        <time>2018-11-27T12:02:14Z</time>
      </trkpt>
      <trkpt lat="43.75802" lon="6.78495">
        <ele>1366</ele>
        <time>2018-11-27T12:02:28Z</time>
      </trkpt>
      <trkpt lat="43.75814" lon="6.78502">
        <ele>1368</ele>
        <time>2018-11-27T12:02:58Z</time>
      </trkpt>
      <trkpt lat="43.75822" lon="6.78508">
        <ele>1363</ele>
        <time>2018-11-27T12:03:09Z</time>
      </trkpt>
      <trkpt lat="43.75831" lon="6.78509">
        <ele>1361</ele>
        <time>2018-11-27T12:03:16Z</time>
      </trkpt>
      <trkpt lat="43.75845" lon="6.78514">
        <ele>1363</ele>
        <time>2018-11-27T12:03:32Z</time>
      </trkpt>
      <trkpt lat="43.75853" lon="6.78522">
        <ele>1364</ele>
        <time>2018-11-27T12:03:43Z</time>
      </trkpt>
      <trkpt lat="43.75862" lon="6.7853">
        <ele>1363</ele>
        <time>2018-11-27T12:03:52Z</time>
      </trkpt>
      <trkpt lat="43.75872" lon="6.78525">
        <ele>1363</ele>
        <time>2018-11-27T12:03:58Z</time>
      </trkpt>
      <trkpt lat="43.75878" lon="6.78533">
        <ele>1347</ele>
        <time>2018-11-27T12:04:20Z</time>
      </trkpt>
      <trkpt lat="43.75884" lon="6.78542">
        <ele>1350</ele>
        <time>2018-11-27T12:04:33Z</time>
      </trkpt>
      <trkpt lat="43.75893" lon="6.78547">
        <ele>1314</ele>
        <time>2018-11-27T12:04:43Z</time>
      </trkpt>
      <trkpt lat="43.75904" lon="6.78541">
        <ele>1291</ele>
        <time>2018-11-27T12:04:56Z</time>
      </trkpt>
      <trkpt lat="43.75919" lon="6.78536">
        <ele>1251</ele>
        <time>2018-11-27T12:05:05Z</time>
      </trkpt>
      <trkpt lat="43.75929" lon="6.7854">
        <ele>1290</ele>
        <time>2018-11-27T12:05:17Z</time>
      </trkpt>
      <trkpt lat="43.75946" lon="6.7855">
        <ele>1337</ele>
        <time>2018-11-27T12:05:41Z</time>
      </trkpt>
      <trkpt lat="43.75964" lon="6.78549">
        <ele>1307</ele>
        <time>2018-11-27T12:06:06Z</time>
      </trkpt>
      <trkpt lat="43.7598" lon="6.78547">
        <ele>1260</ele>
        <time>2018-11-27T12:06:32Z</time>
      </trkpt>
      <trkpt lat="43.76001" lon="6.78549">
        <ele>1315</ele>
        <time>2018-11-27T12:07:01Z</time>
      </trkpt>
      <trkpt lat="43.76016" lon="6.78555">
        <ele>1277</ele>
        <time>2018-11-27T12:07:22Z</time>
      </trkpt>
      <trkpt lat="43.76029" lon="6.7856">
        <ele>1303</ele>
        <time>2018-11-27T12:07:39Z</time>
      </trkpt>
      <trkpt lat="43.76044" lon="6.78562">
        <ele>1296</ele>
        <time>2018-11-27T12:07:57Z</time>
      </trkpt>
      <trkpt lat="43.76054" lon="6.78567">
        <ele>1291</ele>
        <time>2018-11-27T12:08:12Z</time>
      </trkpt>
      <trkpt lat="43.76061" lon="6.78563">
        <ele>1320</ele>
        <time>2018-11-27T12:08:25Z</time>
      </trkpt>
      <trkpt lat="43.7607" lon="6.78561">
        <ele>1309</ele>
        <time>2018-11-27T12:08:38Z</time>
      </trkpt>
      <trkpt lat="43.76077" lon="6.78557">
        <ele>1313</ele>
        <time>2018-11-27T12:08:44Z</time>
      </trkpt>
      <trkpt lat="43.76085" lon="6.78555">
        <ele>1301</ele>
        <time>2018-11-27T12:08:52Z</time>
      </trkpt>
      <trkpt lat="43.76081" lon="6.78562">
        <ele>1333</ele>
        <time>2018-11-27T12:09:22Z</time>
      </trkpt>
      <trkpt lat="43.76069" lon="6.7856">
        <ele>1327</ele>
        <time>2018-11-27T12:09:34Z</time>
      </trkpt>
      <trkpt lat="43.7606" lon="6.78568">
        <ele>1321</ele>
        <time>2018-11-27T12:09:43Z</time>
      </trkpt>
      <trkpt lat="43.76041" lon="6.78577">
        <ele>1322</ele>
        <time>2018-11-27T12:10:04Z</time>
      </trkpt>
      <trkpt lat="43.76032" lon="6.78579">
        <ele>1319</ele>
        <time>2018-11-27T12:10:23Z</time>
      </trkpt>
      <trkpt lat="43.76023" lon="6.78583">
        <ele>1298</ele>
        <time>2018-11-27T12:10:33Z</time>
      </trkpt>
      <trkpt lat="43.76005" lon="6.78588">
        <ele>1308</ele>
        <time>2018-11-27T12:10:52Z</time>
      </trkpt>
      <trkpt lat="43.75997" lon="6.78594">
        <ele>1314</ele>
        <time>2018-11-27T12:11:01Z</time>
      </trkpt>
      <trkpt lat="43.75986" lon="6.78617">
        <ele>1314</ele>
        <time>2018-11-27T12:11:18Z</time>
      </trkpt>
      <trkpt lat="43.7598" lon="6.78618">
        <ele>1329</ele>
        <time>2018-11-27T12:11:25Z</time>
      </trkpt>
      <trkpt lat="43.75976" lon="6.78625">
        <ele>1323</ele>
        <time>2018-11-27T12:11:31Z</time>
      </trkpt>
      <trkpt lat="43.75974" lon="6.78635">
        <ele>1321</ele>
        <time>2018-11-27T12:11:39Z</time>
      </trkpt>
      <trkpt lat="43.75971" lon="6.78656">
        <ele>1332</ele>
        <time>2018-11-27T12:11:53Z</time>
      </trkpt>
      <trkpt lat="43.75967" lon="6.78665">
        <ele>1336</ele>
        <time>2018-11-27T12:11:59Z</time>
      </trkpt>
      <trkpt lat="43.75963" lon="6.7867">
        <ele>1337</ele>
        <time>2018-11-27T12:12:05Z</time>
      </trkpt>
      <trkpt lat="43.75957" lon="6.78683">
        <ele>1335</ele>
        <time>2018-11-27T12:12:16Z</time>
      </trkpt>
      <trkpt lat="43.75952" lon="6.7869">
        <ele>1332</ele>
        <time>2018-11-27T12:12:27Z</time>
      </trkpt>
      <trkpt lat="43.75949" lon="6.78696">
        <ele>1332</ele>
        <time>2018-11-27T12:12:34Z</time>
      </trkpt>
      <trkpt lat="43.75945" lon="6.78703">
        <ele>1331</ele>
        <time>2018-11-27T12:12:40Z</time>
      </trkpt>
      <trkpt lat="43.75943" lon="6.78712">
        <ele>1330</ele>
        <time>2018-11-27T12:12:48Z</time>
      </trkpt>
      <trkpt lat="43.75941" lon="6.78724">
        <ele>1326</ele>
        <time>2018-11-27T12:12:56Z</time>
      </trkpt>
      <trkpt lat="43.75936" lon="6.78732">
        <ele>1324</ele>
        <time>2018-11-27T12:13:05Z</time>
      </trkpt>
      <trkpt lat="43.75933" lon="6.78745">
        <ele>1326</ele>
        <time>2018-11-27T12:13:11Z</time>
      </trkpt>
      <trkpt lat="43.75925" lon="6.78757">
        <ele>1328</ele>
        <time>2018-11-27T12:13:24Z</time>
      </trkpt>
      <trkpt lat="43.75921" lon="6.78763">
        <ele>1330</ele>
        <time>2018-11-27T12:13:28Z</time>
      </trkpt>
      <trkpt lat="43.75915" lon="6.78766">
        <ele>1330</ele>
        <time>2018-11-27T12:13:34Z</time>
      </trkpt>
      <trkpt lat="43.75913" lon="6.78773">
        <ele>1315</ele>
        <time>2018-11-27T12:13:41Z</time>
      </trkpt>
      <trkpt lat="43.75909" lon="6.78779">
        <ele>1319</ele>
        <time>2018-11-27T12:13:49Z</time>
      </trkpt>
      <trkpt lat="43.75909" lon="6.78785">
        <ele>1329</ele>
        <time>2018-11-27T12:14:02Z</time>
      </trkpt>
    </trkseg>
  </trk>
</gpx>